BAW31 EGLL-VHHH
Flight info
| Callsign | BAW31 |
|---|---|
| Flight time | N/A |
| Altitude | 33000 |
| Route | DET L6 DVR UL9 KONAN DCT KOK DCT MATUG DCT BOMBI DCT TENLO DCT DEXIT DCT BEGLA DCT BALUX DCT SOKRU DCT OPT DCT LUGEB DCT UDROS/N0490F350 UN743 GAKSU UT310 SIN UN644 KARDE UL851 TBN UM11 REBLO DCT TABAS DCT MATAL T916 BALUN/K0902F350 T916 KUNAS N193 LAPZE/K0898F370 N193 SR L163 TISIB L141 KAMUD/K0893S1130 W186 SADAN Y1 NUPNI/K0891S1190 Y1 OMBON W245 OVRAL B330 KWE W181 DUDIT A599 POU R473 SIERA |
| Aircraft | A35K/H-SDE2E3GHIJ3J4J5LM1ORWXY/LB1D1 |
Departure
| Time | N/A |
|---|---|
| Airport | London Heathrow Airport (EGLL) |
Arrival
| Time | 2026-05-06 22:03 |
|---|---|
| Airport | Hong Kong International Airport (VHHH) |
| Time | Latitude | Longitude | Altitude | Speed | Heading |
|---|---|---|---|---|---|
| 2026-05-06 12:01 | 47.14837 | 19.69526 | 34933 ft | 513 kts | 120° |
| 2026-05-06 12:02 | 47.11612 | 19.78885 | 34936 ft | 513 kts | 120° |
| 2026-05-06 12:02 | 47.08384 | 19.88221 | 34935 ft | 513 kts | 120° |
| 2026-05-06 12:03 | 47.05144 | 19.97562 | 34934 ft | 513 kts | 120° |
| 2026-05-06 12:03 | 47.01918 | 20.06829 | 34936 ft | 513 kts | 120° |
| 2026-05-06 12:04 | 46.98667 | 20.16137 | 34935 ft | 513 kts | 120° |
| 2026-05-06 12:04 | 46.95404 | 20.25441 | 34938 ft | 513 kts | 120° |
| 2026-05-06 12:05 | 46.92137 | 20.34727 | 34934 ft | 513 kts | 120° |
| 2026-05-06 12:05 | 46.88858 | 20.44013 | 34933 ft | 514 kts | 120° |
| 2026-05-06 12:06 | 46.85576 | 20.53274 | 34935 ft | 514 kts | 120° |
| 2026-05-06 12:06 | 46.82280 | 20.62544 | 34938 ft | 514 kts | 120° |
| 2026-05-06 12:07 | 46.78983 | 20.71784 | 34940 ft | 514 kts | 120° |
| 2026-05-06 12:07 | 46.75674 | 20.81027 | 34944 ft | 514 kts | 120° |
| 2026-05-06 12:08 | 46.72357 | 20.90259 | 34947 ft | 514 kts | 120° |
| 2026-05-06 12:08 | 46.69038 | 20.99466 | 34952 ft | 514 kts | 120° |
| 2026-05-06 12:09 | 46.65704 | 21.08677 | 34950 ft | 514 kts | 120° |
| 2026-05-06 12:09 | 46.62365 | 21.17875 | 34947 ft | 514 kts | 120° |
| 2026-05-06 12:10 | 46.59024 | 21.27044 | 34967 ft | 514 kts | 120° |
| 2026-05-06 12:10 | 46.55670 | 21.36220 | 34947 ft | 514 kts | 120° |
| 2026-05-06 12:11 | 46.52311 | 21.45377 | 34968 ft | 514 kts | 120° |
| 2026-05-06 12:11 | 46.48940 | 21.54537 | 34968 ft | 514 kts | 120° |
| 2026-05-06 12:12 | 46.45584 | 21.63625 | 34968 ft | 514 kts | 120° |
| 2026-05-06 12:12 | 46.42201 | 21.72752 | 34965 ft | 515 kts | 120° |
| 2026-05-06 12:13 | 46.38804 | 21.81890 | 34972 ft | 515 kts | 120° |
| 2026-05-06 12:13 | 46.35396 | 21.91022 | 34975 ft | 515 kts | 120° |
| 2026-05-06 12:14 | 46.31987 | 22.00133 | 34971 ft | 515 kts | 120° |
| 2026-05-06 12:14 | 46.28562 | 22.09250 | 34975 ft | 516 kts | 120° |
| 2026-05-06 12:15 | 46.25132 | 22.18349 | 34976 ft | 516 kts | 120° |
| 2026-05-06 12:15 | 46.21694 | 22.27442 | 34980 ft | 516 kts | 120° |
| 2026-05-06 12:16 | 46.18242 | 22.36537 | 34978 ft | 516 kts | 120° |
| 2026-05-06 12:16 | 46.14785 | 22.45620 | 34973 ft | 516 kts | 120° |
| 2026-05-06 12:17 | 46.11323 | 22.54687 | 34974 ft | 517 kts | 120° |
| 2026-05-06 12:17 | 46.07845 | 22.63766 | 34976 ft | 518 kts | 120° |
| 2026-05-06 12:18 | 46.04354 | 22.72842 | 34971 ft | 518 kts | 120° |
| 2026-05-06 12:18 | 46.00862 | 22.81895 | 34968 ft | 518 kts | 120° |
| 2026-05-06 12:19 | 45.97356 | 22.90950 | 34966 ft | 518 kts | 120° |
| 2026-05-06 12:19 | 45.93841 | 23.00002 | 34963 ft | 519 kts | 120° |
| 2026-05-06 12:20 | 45.90324 | 23.09030 | 34963 ft | 519 kts | 120° |
| 2026-05-06 12:20 | 45.86818 | 23.18001 | 34961 ft | 518 kts | 120° |
| 2026-05-06 12:21 | 45.83279 | 23.27026 | 34960 ft | 519 kts | 119° |
| 2026-05-06 12:21 | 45.79736 | 23.36031 | 34964 ft | 519 kts | 119° |
| 2026-05-06 12:22 | 45.76179 | 23.45038 | 34965 ft | 519 kts | 119° |
| 2026-05-06 12:22 | 45.72609 | 23.54053 | 34976 ft | 520 kts | 119° |
| 2026-05-06 12:23 | 45.69040 | 23.63037 | 34977 ft | 520 kts | 119° |
| 2026-05-06 12:23 | 45.65457 | 23.72026 | 34979 ft | 520 kts | 119° |
| 2026-05-06 12:24 | 45.61871 | 23.80993 | 35039 ft | 519 kts | 119° |
| 2026-05-06 12:24 | 45.60075 | 23.85471 | 35375 ft | 516 kts | 119° |
| 2026-05-06 12:24 | 45.58298 | 23.89897 | 35685 ft | 513 kts | 119° |
| 2026-05-06 12:25 | 45.56526 | 23.94304 | 35930 ft | 512 kts | 119° |
| 2026-05-06 12:25 | 45.54746 | 23.98721 | 36088 ft | 512 kts | 119° |
| 2026-05-06 12:25 | 45.52972 | 24.03118 | 36332 ft | 511 kts | 119° |
| 2026-05-06 12:25 | 45.51200 | 24.07503 | 36576 ft | 510 kts | 119° |
| 2026-05-06 12:26 | 45.49432 | 24.11871 | 36790 ft | 509 kts | 119° |
| 2026-05-06 12:26 | 45.47658 | 24.16249 | 36934 ft | 509 kts | 119° |
| 2026-05-06 12:26 | 45.44097 | 24.25015 | 36993 ft | 515 kts | 119° |
| 2026-05-06 12:27 | 45.40500 | 24.33842 | 36993 ft | 514 kts | 119° |
| 2026-05-06 12:27 | 45.36901 | 24.42641 | 36999 ft | 514 kts | 119° |
| 2026-05-06 12:28 | 45.33303 | 24.51411 | 36998 ft | 514 kts | 119° |
| 2026-05-06 12:28 | 45.29719 | 24.60123 | 37007 ft | 514 kts | 119° |
| 2026-05-06 12:29 | 45.26105 | 24.68879 | 37006 ft | 513 kts | 119° |
| 2026-05-06 12:29 | 45.22468 | 24.77664 | 37003 ft | 514 kts | 119° |
| 2026-05-06 12:30 | 45.18866 | 24.86335 | 37009 ft | 513 kts | 119° |
| 2026-05-06 12:30 | 45.15238 | 24.95045 | 37013 ft | 513 kts | 119° |
| 2026-05-06 12:31 | 45.11609 | 25.03727 | 37018 ft | 513 kts | 119° |
| 2026-05-06 12:31 | 45.07969 | 25.12409 | 37017 ft | 512 kts | 119° |
| 2026-05-06 12:32 | 45.04325 | 25.21075 | 37015 ft | 512 kts | 119° |
| 2026-05-06 12:32 | 45.00682 | 25.29714 | 37023 ft | 512 kts | 120° |
| 2026-05-06 12:33 | 44.97476 | 25.38664 | 37017 ft | 510 kts | 113° |
| 2026-05-06 12:33 | 44.94544 | 25.47785 | 37020 ft | 510 kts | 112° |
| 2026-05-06 12:34 | 44.91646 | 25.56893 | 37025 ft | 509 kts | 112° |
| 2026-05-06 12:34 | 44.88732 | 25.65993 | 37013 ft | 509 kts | 112° |
| 2026-05-06 12:35 | 44.85806 | 25.75070 | 37034 ft | 508 kts | 113° |
| 2026-05-06 12:35 | 44.82879 | 25.84111 | 37022 ft | 507 kts | 113° |
| 2026-05-06 12:36 | 44.79942 | 25.93149 | 37022 ft | 507 kts | 113° |
| 2026-05-06 12:36 | 44.77002 | 26.02169 | 37028 ft | 506 kts | 113° |
| 2026-05-06 12:37 | 44.74062 | 26.11157 | 37025 ft | 506 kts | 113° |
| 2026-05-06 12:37 | 44.71113 | 26.20144 | 37025 ft | 506 kts | 113° |
| 2026-05-06 12:38 | 44.68158 | 26.29117 | 37029 ft | 505 kts | 113° |
| 2026-05-06 12:38 | 44.65202 | 26.38061 | 37027 ft | 505 kts | 113° |
| 2026-05-06 12:39 | 44.62236 | 26.47008 | 37032 ft | 505 kts | 113° |
| 2026-05-06 12:39 | 44.59208 | 26.55889 | 37036 ft | 506 kts | 118° |
| 2026-05-06 12:40 | 44.55670 | 26.64427 | 37041 ft | 506 kts | 119° |
| 2026-05-06 12:40 | 44.52039 | 26.72889 | 37042 ft | 506 kts | 120° |
| 2026-05-06 12:41 | 44.48399 | 26.81321 | 37042 ft | 506 kts | 120° |
| 2026-05-06 12:41 | 44.44752 | 26.89764 | 37044 ft | 506 kts | 119° |
| 2026-05-06 12:42 | 44.41127 | 26.98144 | 37046 ft | 507 kts | 120° |
| 2026-05-06 12:42 | 44.37476 | 27.06564 | 37050 ft | 507 kts | 120° |
| 2026-05-06 12:43 | 44.33814 | 27.14985 | 37054 ft | 507 kts | 120° |
| 2026-05-06 12:43 | 44.30149 | 27.23387 | 37055 ft | 507 kts | 120° |
| 2026-05-06 12:44 | 44.26471 | 27.31793 | 37059 ft | 507 kts | 120° |
| 2026-05-06 12:44 | 44.22788 | 27.40185 | 37062 ft | 507 kts | 120° |
| 2026-05-06 12:45 | 44.19107 | 27.48552 | 37060 ft | 507 kts | 120° |
| 2026-05-06 12:46 | 44.13566 | 27.61099 | 37064 ft | 507 kts | 120° |
| 2026-05-06 12:46 | 44.10469 | 27.68087 | 37066 ft | 506 kts | 120° |
| 2026-05-06 12:47 | 44.06763 | 27.76427 | 37067 ft | 506 kts | 120° |
| 2026-05-06 12:47 | 44.03058 | 27.84740 | 37073 ft | 506 kts | 120° |
| 2026-05-06 12:48 | 43.99345 | 27.93050 | 37073 ft | 506 kts | 120° |
| 2026-05-06 12:48 | 43.95632 | 28.01336 | 37079 ft | 506 kts | 120° |
| 2026-05-06 12:49 | 43.91931 | 28.09570 | 37083 ft | 506 kts | 120° |
| 2026-05-06 12:49 | 43.88181 | 28.17890 | 37088 ft | 506 kts | 120° |
| 2026-05-06 12:50 | 43.84470 | 28.26098 | 37092 ft | 505 kts | 120° |
| 2026-05-06 12:50 | 43.80732 | 28.34344 | 37099 ft | 505 kts | 120° |
| 2026-05-06 12:51 | 43.76996 | 28.42560 | 37102 ft | 505 kts | 120° |
| 2026-05-06 12:51 | 43.73250 | 28.50777 | 37106 ft | 505 kts | 121° |
| 2026-05-06 12:52 | 43.69495 | 28.58976 | 37106 ft | 504 kts | 121° |
| 2026-05-06 12:52 | 43.65726 | 28.67131 | 37113 ft | 504 kts | 121° |
| 2026-05-06 12:53 | 43.61950 | 28.75287 | 37115 ft | 504 kts | 121° |
| 2026-05-06 12:53 | 43.58172 | 28.83432 | 37115 ft | 503 kts | 121° |
| 2026-05-06 12:54 | 43.54398 | 28.91551 | 37114 ft | 503 kts | 121° |
| 2026-05-06 12:54 | 43.50614 | 28.99670 | 37121 ft | 503 kts | 121° |
| 2026-05-06 12:55 | 43.46850 | 29.07723 | 37103 ft | 503 kts | 121° |
| 2026-05-06 12:55 | 43.43036 | 29.15860 | 37126 ft | 503 kts | 121° |
| 2026-05-06 12:56 | 43.39260 | 29.23891 | 37112 ft | 503 kts | 121° |
| 2026-05-06 12:56 | 43.35453 | 29.31970 | 37113 ft | 503 kts | 121° |
| 2026-05-06 12:57 | 43.31644 | 29.40029 | 37121 ft | 504 kts | 121° |
| 2026-05-06 12:57 | 43.27821 | 29.48094 | 37120 ft | 504 kts | 121° |
| 2026-05-06 12:58 | 43.23998 | 29.56139 | 37119 ft | 504 kts | 121° |
| 2026-05-06 12:58 | 43.20160 | 29.64193 | 37120 ft | 504 kts | 121° |
| 2026-05-06 12:59 | 43.16314 | 29.72243 | 37123 ft | 505 kts | 121° |
| 2026-05-06 12:59 | 43.12466 | 29.80274 | 37120 ft | 505 kts | 121° |
| 2026-05-06 13:00 | 43.08604 | 29.88311 | 37122 ft | 505 kts | 121° |
| 2026-05-06 13:00 | 43.04735 | 29.96342 | 37122 ft | 505 kts | 121° |
| 2026-05-06 13:01 | 43.00865 | 30.04355 | 37126 ft | 506 kts | 122° |
| 2026-05-06 13:01 | 42.96980 | 30.12375 | 37117 ft | 506 kts | 121° |
| 2026-05-06 13:02 | 42.93112 | 30.20338 | 37125 ft | 507 kts | 122° |
| 2026-05-06 13:02 | 42.89190 | 30.28393 | 37132 ft | 507 kts | 122° |
| 2026-05-06 13:03 | 42.85280 | 30.36400 | 37123 ft | 507 kts | 122° |
| 2026-05-06 13:03 | 42.81364 | 30.44399 | 37120 ft | 507 kts | 122° |
| 2026-05-06 13:04 | 42.77445 | 30.52380 | 37123 ft | 508 kts | 122° |
| 2026-05-06 13:04 | 42.73948 | 30.60612 | 37121 ft | 504 kts | 109° |
| 2026-05-06 13:05 | 42.71865 | 30.69661 | 37118 ft | 501 kts | 102° |
| 2026-05-06 13:05 | 42.70090 | 30.78811 | 37120 ft | 501 kts | 102° |
| 2026-05-06 13:06 | 42.68331 | 30.87986 | 37119 ft | 501 kts | 102° |
| 2026-05-06 13:06 | 42.66540 | 30.97151 | 37120 ft | 502 kts | 102° |
| 2026-05-06 13:07 | 42.64730 | 31.06292 | 37118 ft | 502 kts | 102° |
| 2026-05-06 13:07 | 42.62906 | 31.15447 | 37119 ft | 502 kts | 102° |
| 2026-05-06 13:08 | 42.61073 | 31.24604 | 37120 ft | 502 kts | 102° |
| 2026-05-06 13:08 | 42.59237 | 31.33745 | 37121 ft | 503 kts | 103° |
| 2026-05-06 13:09 | 42.57390 | 31.42896 | 37119 ft | 503 kts | 103° |
| 2026-05-06 13:09 | 42.55547 | 31.51984 | 37121 ft | 503 kts | 103° |
| 2026-05-06 13:10 | 42.53675 | 31.61178 | 37121 ft | 503 kts | 103° |
| 2026-05-06 13:10 | 42.51804 | 31.70324 | 37121 ft | 503 kts | 103° |
| 2026-05-06 13:11 | 42.49925 | 31.79463 | 37120 ft | 503 kts | 103° |
| 2026-05-06 13:11 | 42.48043 | 31.88582 | 37119 ft | 503 kts | 103° |
| 2026-05-06 13:12 | 42.46150 | 31.97711 | 37122 ft | 503 kts | 103° |
| 2026-05-06 13:12 | 42.44253 | 32.06821 | 37125 ft | 503 kts | 103° |
| 2026-05-06 13:13 | 42.42346 | 32.15937 | 37125 ft | 503 kts | 103° |
| 2026-05-06 13:13 | 42.40433 | 32.25046 | 37122 ft | 503 kts | 103° |
| 2026-05-06 13:14 | 42.38515 | 32.34136 | 37118 ft | 503 kts | 103° |
| 2026-05-06 13:14 | 42.36600 | 32.43173 | 37114 ft | 503 kts | 103° |
| 2026-05-06 13:15 | 42.34656 | 32.52308 | 37114 ft | 502 kts | 104° |
| 2026-05-06 13:15 | 42.33048 | 32.61406 | 37127 ft | 500 kts | 97° |
| 2026-05-06 13:16 | 42.31948 | 32.70671 | 37121 ft | 499 kts | 96° |
| 2026-05-06 13:16 | 42.30912 | 32.79947 | 37117 ft | 499 kts | 96° |
| 2026-05-06 13:17 | 42.29871 | 32.89199 | 37118 ft | 499 kts | 96° |
| 2026-05-06 13:17 | 42.28811 | 32.98460 | 37122 ft | 499 kts | 97° |
| 2026-05-06 13:18 | 42.27738 | 33.07717 | 37121 ft | 498 kts | 97° |
| 2026-05-06 13:18 | 42.26660 | 33.16946 | 37125 ft | 498 kts | 97° |
| 2026-05-06 13:19 | 42.25574 | 33.26188 | 37124 ft | 498 kts | 97° |
| 2026-05-06 13:19 | 42.24481 | 33.35414 | 37124 ft | 498 kts | 97° |
| 2026-05-06 13:20 | 42.23381 | 33.44646 | 37124 ft | 498 kts | 97° |
| 2026-05-06 13:20 | 42.22273 | 33.53874 | 37128 ft | 498 kts | 97° |
| 2026-05-06 13:21 | 42.21159 | 33.63091 | 37126 ft | 498 kts | 97° |
| 2026-05-06 13:21 | 42.20036 | 33.72316 | 37127 ft | 498 kts | 97° |
| 2026-05-06 13:22 | 42.18907 | 33.81525 | 37129 ft | 498 kts | 97° |
| 2026-05-06 13:22 | 42.17765 | 33.90748 | 37128 ft | 499 kts | 98° |
| 2026-05-06 13:23 | 42.16621 | 33.99972 | 37129 ft | 499 kts | 98° |
| 2026-05-06 13:23 | 42.15472 | 34.09180 | 37129 ft | 499 kts | 98° |
| 2026-05-06 13:24 | 42.14312 | 34.18403 | 37127 ft | 499 kts | 98° |
| 2026-05-06 13:24 | 42.13145 | 34.27612 | 37133 ft | 499 kts | 98° |
| 2026-05-06 13:25 | 42.11968 | 34.36836 | 37127 ft | 499 kts | 98° |
| 2026-05-06 13:25 | 42.10784 | 34.46061 | 37127 ft | 499 kts | 98° |
| 2026-05-06 13:26 | 42.09529 | 34.55253 | 37124 ft | 500 kts | 99° |
| 2026-05-06 13:26 | 42.08239 | 34.64390 | 37119 ft | 500 kts | 99° |
| 2026-05-06 13:27 | 42.06946 | 34.73579 | 37119 ft | 500 kts | 99° |
| 2026-05-06 13:27 | 42.05653 | 34.82780 | 37124 ft | 500 kts | 99° |
| 2026-05-06 13:28 | 42.04375 | 34.91981 | 37123 ft | 500 kts | 99° |
| 2026-05-06 13:28 | 42.03145 | 35.01236 | 37127 ft | 500 kts | 99° |
| 2026-05-06 13:29 | 42.02179 | 35.10424 | 37126 ft | 499 kts | 94° |
| 2026-05-06 13:29 | 42.01646 | 35.19730 | 37123 ft | 499 kts | 93° |
| 2026-05-06 13:30 | 42.01161 | 35.29030 | 37122 ft | 499 kts | 93° |
| 2026-05-06 13:30 | 42.00669 | 35.38339 | 37118 ft | 499 kts | 93° |
| 2026-05-06 13:31 | 42.00162 | 35.47632 | 37119 ft | 499 kts | 93° |
| 2026-05-06 13:31 | 41.99643 | 35.56950 | 37120 ft | 499 kts | 93° |
| 2026-05-06 13:32 | 41.99116 | 35.66256 | 37119 ft | 499 kts | 93° |
| 2026-05-06 13:32 | 41.98582 | 35.75552 | 37116 ft | 499 kts | 94° |
| 2026-05-06 13:33 | 41.98131 | 35.83298 | 37119 ft | 499 kts | 94° |
| 2026-05-06 13:33 | 41.97584 | 35.92593 | 37116 ft | 500 kts | 94° |
| 2026-05-06 13:34 | 41.97028 | 36.01902 | 37125 ft | 499 kts | 94° |
| 2026-05-06 13:34 | 41.96462 | 36.11256 | 37118 ft | 500 kts | 94° |
| 2026-05-06 13:35 | 41.95895 | 36.20500 | 37119 ft | 499 kts | 94° |
| 2026-05-06 13:35 | 41.95316 | 36.29802 | 37127 ft | 499 kts | 94° |
| 2026-05-06 13:36 | 41.94731 | 36.39088 | 37127 ft | 499 kts | 94° |
| 2026-05-06 13:36 | 41.94138 | 36.48388 | 37121 ft | 499 kts | 94° |
| 2026-05-06 13:37 | 41.93537 | 36.57684 | 37120 ft | 499 kts | 95° |
| 2026-05-06 13:37 | 41.92930 | 36.66963 | 37125 ft | 499 kts | 95° |
| 2026-05-06 13:38 | 41.92314 | 36.76253 | 37123 ft | 499 kts | 95° |
| 2026-05-06 13:38 | 41.91691 | 36.85541 | 37115 ft | 499 kts | 95° |
| 2026-05-06 13:39 | 41.91062 | 36.94810 | 37124 ft | 499 kts | 95° |
| 2026-05-06 13:39 | 41.90165 | 37.04044 | 37113 ft | 499 kts | 104° |
| 2026-05-06 13:40 | 41.87848 | 37.12814 | 37114 ft | 499 kts | 112° |
| 2026-05-06 13:40 | 41.85156 | 37.21390 | 37123 ft | 500 kts | 113° |
| 2026-05-06 13:41 | 41.82410 | 37.29957 | 37130 ft | 500 kts | 113° |
| 2026-05-06 13:41 | 41.79676 | 37.38532 | 37122 ft | 500 kts | 113° |
| 2026-05-06 13:42 | 41.76955 | 37.47095 | 37123 ft | 500 kts | 113° |
| 2026-05-06 13:42 | 41.74225 | 37.55668 | 37130 ft | 500 kts | 113° |
| 2026-05-06 13:43 | 41.71490 | 37.64233 | 37133 ft | 500 kts | 113° |
| 2026-05-06 13:43 | 41.68759 | 37.72778 | 37124 ft | 500 kts | 113° |
| 2026-05-06 13:44 | 41.66010 | 37.81326 | 37128 ft | 500 kts | 114° |
| 2026-05-06 13:44 | 41.63253 | 37.89867 | 37123 ft | 500 kts | 114° |
| 2026-05-06 13:45 | 41.60497 | 37.98389 | 37132 ft | 500 kts | 114° |
| 2026-05-06 13:45 | 41.56346 | 38.11175 | 37135 ft | 500 kts | 114° |
| 2026-05-06 13:46 | 41.53567 | 38.19703 | 37131 ft | 500 kts | 114° |
| 2026-05-06 13:46 | 41.50786 | 38.28209 | 37141 ft | 501 kts | 114° |
| 2026-05-06 13:47 | 41.47993 | 38.36725 | 37136 ft | 501 kts | 114° |
| 2026-05-06 13:47 | 41.45198 | 38.45222 | 37138 ft | 501 kts | 114° |
| 2026-05-06 13:48 | 41.42409 | 38.53675 | 37138 ft | 501 kts | 114° |
| 2026-05-06 13:48 | 41.39595 | 38.62177 | 37137 ft | 501 kts | 114° |
| 2026-05-06 13:49 | 41.36774 | 38.70674 | 37138 ft | 501 kts | 115° |
| 2026-05-06 13:49 | 41.33932 | 38.79206 | 37138 ft | 502 kts | 115° |
| 2026-05-06 13:50 | 41.31154 | 38.87656 | 37138 ft | 502 kts | 114° |
| 2026-05-06 13:50 | 41.28362 | 38.96214 | 37137 ft | 502 kts | 114° |
| 2026-05-06 13:51 | 41.25594 | 39.04664 | 37137 ft | 502 kts | 115° |
| 2026-05-06 13:51 | 41.22799 | 39.13152 | 37133 ft | 502 kts | 115° |
| 2026-05-06 13:52 | 41.19979 | 39.21633 | 37139 ft | 502 kts | 116° |
| 2026-05-06 13:52 | 41.17034 | 39.30041 | 37143 ft | 502 kts | 116° |
| 2026-05-06 13:53 | 41.14069 | 39.38403 | 37146 ft | 502 kts | 116° |
| 2026-05-06 13:53 | 41.11109 | 39.46793 | 37152 ft | 502 kts | 116° |
| 2026-05-06 13:54 | 41.08154 | 39.55187 | 37155 ft | 502 kts | 116° |
| 2026-05-06 13:54 | 41.05193 | 39.63581 | 37155 ft | 503 kts | 116° |
| 2026-05-06 13:55 | 41.02229 | 39.71957 | 37157 ft | 503 kts | 117° |
| 2026-05-06 13:55 | 40.99854 | 39.80672 | 37154 ft | 506 kts | 102° |
| 2026-05-06 13:56 | 40.99211 | 39.89963 | 37156 ft | 508 kts | 94° |
| 2026-05-06 13:56 | 40.98999 | 39.99313 | 37153 ft | 509 kts | 92° |
| 2026-05-06 13:57 | 40.98817 | 40.08693 | 37149 ft | 510 kts | 93° |
| 2026-05-06 13:57 | 40.98598 | 40.18074 | 37151 ft | 510 kts | 93° |
| 2026-05-06 13:58 | 40.98357 | 40.27442 | 37153 ft | 510 kts | 94° |
| 2026-05-06 13:58 | 40.98093 | 40.36828 | 37152 ft | 510 kts | 94° |
| 2026-05-06 13:59 | 40.97821 | 40.46218 | 37155 ft | 510 kts | 94° |
| 2026-05-06 13:59 | 40.97545 | 40.55598 | 37155 ft | 511 kts | 94° |
| 2026-05-06 14:00 | 40.97262 | 40.65000 | 37154 ft | 511 kts | 94° |
| 2026-05-06 14:00 | 40.96971 | 40.74408 | 37155 ft | 512 kts | 94° |
| 2026-05-06 14:01 | 40.96674 | 40.83805 | 37156 ft | 512 kts | 94° |
| 2026-05-06 14:01 | 40.96371 | 40.93229 | 37162 ft | 513 kts | 94° |
| 2026-05-06 14:02 | 40.96060 | 41.02647 | 37161 ft | 513 kts | 94° |
| 2026-05-06 14:02 | 40.95733 | 41.12097 | 37154 ft | 514 kts | 94° |
| 2026-05-06 14:03 | 40.95400 | 41.21533 | 37142 ft | 515 kts | 95° |
| 2026-05-06 14:03 | 40.95062 | 41.30934 | 37132 ft | 515 kts | 95° |
| 2026-05-06 14:04 | 40.94715 | 41.40460 | 37123 ft | 516 kts | 95° |
| 2026-05-06 14:04 | 40.94361 | 41.49881 | 37116 ft | 516 kts | 95° |
| 2026-05-06 14:05 | 40.93998 | 41.59377 | 37111 ft | 517 kts | 95° |
| 2026-05-06 14:05 | 40.93628 | 41.68864 | 37110 ft | 517 kts | 95° |
| 2026-05-06 14:06 | 40.93248 | 41.78367 | 37110 ft | 517 kts | 95° |
| 2026-05-06 14:06 | 40.92860 | 41.87878 | 37103 ft | 518 kts | 95° |
| 2026-05-06 14:07 | 40.92463 | 41.97384 | 37101 ft | 519 kts | 95° |
| 2026-05-06 14:07 | 40.92060 | 42.06919 | 37107 ft | 519 kts | 95° |
| 2026-05-06 14:08 | 40.91649 | 42.16459 | 37098 ft | 520 kts | 96° |
| 2026-05-06 14:08 | 40.91229 | 42.25994 | 37101 ft | 520 kts | 96° |
| 2026-05-06 14:09 | 40.90800 | 42.35552 | 37097 ft | 521 kts | 96° |
| 2026-05-06 14:09 | 40.90362 | 42.45117 | 37096 ft | 521 kts | 96° |
| 2026-05-06 14:10 | 40.89916 | 42.54670 | 37096 ft | 522 kts | 96° |
| 2026-05-06 14:10 | 40.89462 | 42.64250 | 37091 ft | 522 kts | 96° |
| 2026-05-06 14:11 | 40.89002 | 42.73816 | 37087 ft | 522 kts | 96° |
| 2026-05-06 14:11 | 40.88531 | 42.83407 | 37085 ft | 523 kts | 96° |
| 2026-05-06 14:12 | 40.88053 | 42.92996 | 37085 ft | 523 kts | 96° |
| 2026-05-06 14:12 | 40.87565 | 43.02606 | 37083 ft | 524 kts | 97° |
| 2026-05-06 14:13 | 40.87070 | 43.12201 | 37080 ft | 524 kts | 97° |
| 2026-05-06 14:13 | 40.86566 | 43.21817 | 37083 ft | 525 kts | 97° |
| 2026-05-06 14:14 | 40.86054 | 43.31440 | 37082 ft | 525 kts | 97° |
| 2026-05-06 14:14 | 40.85534 | 43.41053 | 37085 ft | 526 kts | 97° |
| 2026-05-06 14:15 | 40.85006 | 43.50686 | 37080 ft | 526 kts | 97° |
| 2026-05-06 14:15 | 40.84560 | 43.58687 | 37082 ft | 526 kts | 97° |
| 2026-05-06 14:16 | 40.84016 | 43.68329 | 37077 ft | 526 kts | 97° |
| 2026-05-06 14:16 | 40.83597 | 43.77988 | 37077 ft | 528 kts | 95° |
| 2026-05-06 14:17 | 40.83340 | 43.87688 | 37076 ft | 529 kts | 95° |
| 2026-05-06 14:17 | 40.83059 | 43.97383 | 37078 ft | 529 kts | 95° |
| 2026-05-06 14:18 | 40.82734 | 44.07092 | 37078 ft | 529 kts | 96° |
| 2026-05-06 14:18 | 40.82389 | 44.16806 | 37081 ft | 529 kts | 96° |
| 2026-05-06 14:19 | 40.82038 | 44.26506 | 37079 ft | 530 kts | 96° |
| 2026-05-06 14:19 | 40.81678 | 44.36237 | 37072 ft | 530 kts | 96° |
| 2026-05-06 14:20 | 40.81315 | 44.45877 | 37064 ft | 530 kts | 96° |
| 2026-05-06 14:20 | 40.80936 | 44.55660 | 37064 ft | 531 kts | 96° |
| 2026-05-06 14:21 | 40.80556 | 44.65392 | 37056 ft | 531 kts | 96° |
| 2026-05-06 14:21 | 40.80168 | 44.75047 | 37056 ft | 531 kts | 96° |
| 2026-05-06 14:22 | 40.79767 | 44.84785 | 37049 ft | 531 kts | 96° |
| 2026-05-06 14:22 | 40.79357 | 44.94519 | 37054 ft | 532 kts | 96° |
| 2026-05-06 14:23 | 40.78941 | 45.04271 | 37048 ft | 532 kts | 96° |
| 2026-05-06 14:23 | 40.78520 | 45.14023 | 37053 ft | 532 kts | 97° |
| 2026-05-06 14:24 | 40.78085 | 45.23768 | 37054 ft | 533 kts | 97° |
| 2026-05-06 14:24 | 40.77642 | 45.33535 | 37048 ft | 533 kts | 97° |
| 2026-05-06 14:25 | 40.77192 | 45.43297 | 37045 ft | 533 kts | 97° |
| 2026-05-06 14:25 | 40.77215 | 45.53090 | 37057 ft | 538 kts | 86° |
| 2026-05-06 14:26 | 40.78135 | 45.62877 | 37040 ft | 538 kts | 85° |
| 2026-05-06 14:26 | 40.79168 | 45.72669 | 37045 ft | 539 kts | 84° |
| 2026-05-06 14:27 | 40.80198 | 45.82468 | 37033 ft | 538 kts | 85° |
| 2026-05-06 14:27 | 40.81198 | 45.92251 | 37030 ft | 539 kts | 85° |
| 2026-05-06 14:28 | 40.82185 | 46.02064 | 37028 ft | 539 kts | 85° |
| 2026-05-06 14:28 | 40.83164 | 46.11892 | 37020 ft | 540 kts | 85° |
| 2026-05-06 14:29 | 40.84135 | 46.21718 | 37022 ft | 541 kts | 85° |
| 2026-05-06 14:29 | 40.85101 | 46.31574 | 37021 ft | 541 kts | 85° |
| 2026-05-06 14:30 | 40.86053 | 46.41376 | 37023 ft | 542 kts | 85° |
| 2026-05-06 14:30 | 40.87009 | 46.51305 | 37026 ft | 542 kts | 85° |
| 2026-05-06 14:31 | 40.87946 | 46.61136 | 37032 ft | 543 kts | 85° |
| 2026-05-06 14:31 | 40.88881 | 46.71037 | 37036 ft | 543 kts | 86° |
| 2026-05-06 14:32 | 40.89840 | 46.80939 | 37035 ft | 545 kts | 83° |
| 2026-05-06 14:32 | 40.91494 | 46.90751 | 37044 ft | 547 kts | 78° |
| 2026-05-06 14:33 | 40.93308 | 47.00527 | 37042 ft | 548 kts | 78° |
| 2026-05-06 14:33 | 40.95137 | 47.10325 | 37044 ft | 549 kts | 78° |
| 2026-05-06 14:34 | 40.96947 | 47.20129 | 37044 ft | 549 kts | 78° |
| 2026-05-06 14:34 | 40.98744 | 47.29956 | 37049 ft | 549 kts | 78° |
| 2026-05-06 14:35 | 41.00530 | 47.39780 | 37042 ft | 550 kts | 78° |
| 2026-05-06 14:35 | 41.02311 | 47.49630 | 37037 ft | 550 kts | 78° |
| 2026-05-06 14:36 | 41.04083 | 47.59486 | 37028 ft | 550 kts | 78° |
| 2026-05-06 14:36 | 41.05844 | 47.69326 | 37026 ft | 549 kts | 79° |
| 2026-05-06 14:37 | 41.07598 | 47.79182 | 37022 ft | 549 kts | 79° |
| 2026-05-06 14:37 | 41.09343 | 47.89033 | 37028 ft | 548 kts | 79° |
| 2026-05-06 14:38 | 41.11223 | 47.98828 | 37034 ft | 550 kts | 72° |
| 2026-05-06 14:38 | 41.13784 | 48.08389 | 37065 ft | 550 kts | 71° |
| 2026-05-06 14:39 | 41.16435 | 48.17884 | 37029 ft | 548 kts | 71° |
| 2026-05-06 14:39 | 41.19085 | 48.27390 | 37036 ft | 550 kts | 71° |
| 2026-05-06 14:40 | 41.21709 | 48.36872 | 37039 ft | 550 kts | 71° |
| 2026-05-06 14:40 | 41.24352 | 48.46483 | 37056 ft | 551 kts | 71° |
| 2026-05-06 14:41 | 41.26958 | 48.55997 | 37043 ft | 551 kts | 72° |
| 2026-05-06 14:41 | 41.29574 | 48.65588 | 37054 ft | 552 kts | 72° |
| 2026-05-06 14:42 | 41.32181 | 48.75185 | 37040 ft | 552 kts | 72° |
| 2026-05-06 14:42 | 41.34786 | 48.84811 | 37043 ft | 553 kts | 72° |
| 2026-05-06 14:43 | 41.37390 | 48.94450 | 37039 ft | 553 kts | 72° |
| 2026-05-06 14:43 | 41.39978 | 49.04090 | 37032 ft | 554 kts | 72° |
| 2026-05-06 14:44 | 41.42560 | 49.13763 | 37034 ft | 554 kts | 72° |
| 2026-05-06 14:45 | 41.46423 | 49.28286 | 37028 ft | 554 kts | 72° |
| 2026-05-06 14:45 | 41.48990 | 49.37983 | 37022 ft | 554 kts | 72° |
| 2026-05-06 14:46 | 41.51546 | 49.47673 | 37025 ft | 554 kts | 72° |
| 2026-05-06 14:46 | 41.54098 | 49.57389 | 37025 ft | 555 kts | 73° |
| 2026-05-06 14:47 | 41.56643 | 49.67117 | 37016 ft | 555 kts | 73° |
| 2026-05-06 14:47 | 41.59176 | 49.76838 | 37019 ft | 555 kts | 73° |
| 2026-05-06 14:48 | 41.61705 | 49.86585 | 37016 ft | 555 kts | 73° |
| 2026-05-06 14:48 | 41.64227 | 49.96342 | 37016 ft | 555 kts | 73° |
| 2026-05-06 14:49 | 41.66737 | 50.06088 | 37012 ft | 555 kts | 73° |
| 2026-05-06 14:49 | 41.69241 | 50.15855 | 37011 ft | 555 kts | 73° |
| 2026-05-06 14:50 | 41.71731 | 50.25610 | 37009 ft | 555 kts | 73° |
| 2026-05-06 14:50 | 41.74218 | 50.35388 | 37009 ft | 554 kts | 73° |
| 2026-05-06 14:51 | 41.76696 | 50.45173 | 37006 ft | 554 kts | 73° |
| 2026-05-06 14:51 | 41.79161 | 50.54949 | 37003 ft | 554 kts | 73° |
| 2026-05-06 14:52 | 41.81623 | 50.64749 | 37001 ft | 554 kts | 74° |
| 2026-05-06 14:52 | 41.84060 | 50.74493 | 36999 ft | 555 kts | 74° |
| 2026-05-06 14:53 | 41.86518 | 50.84362 | 37000 ft | 555 kts | 74° |
| 2026-05-06 14:53 | 41.88957 | 50.94195 | 36997 ft | 555 kts | 74° |
| 2026-05-06 14:54 | 41.91388 | 51.04037 | 36997 ft | 555 kts | 74° |
| 2026-05-06 14:54 | 41.93807 | 51.13870 | 36995 ft | 555 kts | 74° |
| 2026-05-06 14:55 | 41.96205 | 51.23662 | 36991 ft | 555 kts | 74° |
| 2026-05-06 14:55 | 41.98611 | 51.33526 | 36990 ft | 555 kts | 74° |
| 2026-05-06 14:56 | 42.01049 | 51.43360 | 36983 ft | 556 kts | 70° |
| 2026-05-06 14:56 | 42.04735 | 51.52520 | 36986 ft | 558 kts | 58° |
| 2026-05-06 14:57 | 42.08951 | 51.61304 | 36983 ft | 558 kts | 57° |
| 2026-05-06 14:57 | 42.13218 | 51.70028 | 36985 ft | 558 kts | 57° |
| 2026-05-06 14:58 | 42.17468 | 51.78784 | 36980 ft | 558 kts | 58° |
| 2026-05-06 14:58 | 42.21691 | 51.87561 | 36980 ft | 557 kts | 58° |
| 2026-05-06 14:59 | 42.25894 | 51.96334 | 36977 ft | 557 kts | 58° |
| 2026-05-06 14:59 | 42.30095 | 52.05129 | 36978 ft | 557 kts | 58° |
| 2026-05-06 15:00 | 42.34288 | 52.13932 | 36973 ft | 557 kts | 58° |
| 2026-05-06 15:00 | 42.38466 | 52.22726 | 36973 ft | 556 kts | 58° |
| 2026-05-06 15:01 | 42.42640 | 52.31538 | 36970 ft | 556 kts | 58° |
| 2026-05-06 15:01 | 42.46797 | 52.40341 | 36964 ft | 555 kts | 58° |
| 2026-05-06 15:02 | 42.50952 | 52.49166 | 36968 ft | 555 kts | 59° |
| 2026-05-06 15:02 | 42.54397 | 52.56502 | 36969 ft | 555 kts | 59° |
| 2026-05-06 15:03 | 42.58538 | 52.65344 | 36960 ft | 555 kts | 59° |
| 2026-05-06 15:03 | 42.62670 | 52.74192 | 36962 ft | 554 kts | 59° |
| 2026-05-06 15:04 | 42.66793 | 52.83049 | 36957 ft | 554 kts | 59° |
| 2026-05-06 15:04 | 42.70901 | 52.91899 | 36953 ft | 554 kts | 59° |
| 2026-05-06 15:05 | 42.75006 | 53.00771 | 36950 ft | 554 kts | 59° |
| 2026-05-06 15:05 | 42.79097 | 53.09637 | 36942 ft | 554 kts | 59° |
| 2026-05-06 15:06 | 42.83187 | 53.18528 | 36953 ft | 554 kts | 59° |
| 2026-05-06 15:06 | 42.87270 | 53.27432 | 36927 ft | 554 kts | 59° |
| 2026-05-06 15:07 | 42.91340 | 53.36331 | 36935 ft | 553 kts | 59° |
| 2026-05-06 15:07 | 42.95406 | 53.45252 | 36929 ft | 553 kts | 59° |
| 2026-05-06 15:08 | 42.99374 | 53.54165 | 36918 ft | 551 kts | 65° |
| 2026-05-06 15:08 | 43.01757 | 53.63952 | 36914 ft | 540 kts | 86° |
| 2026-05-06 15:09 | 43.02619 | 53.74121 | 36907 ft | 538 kts | 89° |
| 2026-05-06 15:09 | 43.03264 | 53.84319 | 36906 ft | 538 kts | 90° |
| 2026-05-06 15:10 | 43.03900 | 53.94505 | 36910 ft | 539 kts | 89° |
| 2026-05-06 15:10 | 43.04559 | 54.04711 | 36903 ft | 539 kts | 89° |
| 2026-05-06 15:11 | 43.05223 | 54.14920 | 36905 ft | 539 kts | 89° |
| 2026-05-06 15:11 | 43.05878 | 54.25111 | 36905 ft | 539 kts | 89° |
| 2026-05-06 15:12 | 43.06523 | 54.35319 | 36896 ft | 539 kts | 90° |
| 2026-05-06 15:12 | 43.07158 | 54.45518 | 36896 ft | 538 kts | 90° |
| 2026-05-06 15:13 | 43.07783 | 54.55731 | 36898 ft | 539 kts | 90° |
| 2026-05-06 15:13 | 43.08400 | 54.65935 | 36895 ft | 539 kts | 90° |
| 2026-05-06 15:14 | 43.09008 | 54.76160 | 36902 ft | 539 kts | 90° |
| 2026-05-06 15:14 | 43.09608 | 54.86391 | 36900 ft | 539 kts | 90° |
| 2026-05-06 15:15 | 43.10197 | 54.96611 | 36895 ft | 539 kts | 90° |
| 2026-05-06 15:15 | 43.10779 | 55.06852 | 36891 ft | 540 kts | 90° |
| 2026-05-06 15:16 | 43.11352 | 55.17099 | 36889 ft | 540 kts | 90° |
| 2026-05-06 15:16 | 43.11915 | 55.27336 | 36892 ft | 540 kts | 90° |
| 2026-05-06 15:17 | 43.12470 | 55.37603 | 36890 ft | 540 kts | 90° |
| 2026-05-06 15:17 | 43.13016 | 55.47853 | 36884 ft | 541 kts | 90° |
| 2026-05-06 15:18 | 43.13553 | 55.58123 | 36883 ft | 541 kts | 90° |
| 2026-05-06 15:18 | 43.14081 | 55.68396 | 36883 ft | 541 kts | 91° |
| 2026-05-06 15:19 | 43.14599 | 55.78655 | 36882 ft | 541 kts | 91° |
| 2026-05-06 15:19 | 43.15108 | 55.88931 | 36879 ft | 541 kts | 91° |
| 2026-05-06 15:20 | 43.15474 | 55.99131 | 36876 ft | 536 kts | 97° |
| 2026-05-06 15:20 | 43.14586 | 56.09226 | 36875 ft | 529 kts | 104° |
| 2026-05-06 15:21 | 43.13400 | 56.19104 | 36876 ft | 529 kts | 105° |
| 2026-05-06 15:21 | 43.12162 | 56.29041 | 36871 ft | 529 kts | 105° |
| 2026-05-06 15:22 | 43.10934 | 56.38968 | 36875 ft | 530 kts | 105° |
| 2026-05-06 15:22 | 43.09708 | 56.48913 | 36869 ft | 530 kts | 105° |
| 2026-05-06 15:23 | 43.08477 | 56.58855 | 36872 ft | 530 kts | 105° |
| 2026-05-06 15:23 | 43.07239 | 56.68776 | 36870 ft | 530 kts | 105° |
| 2026-05-06 15:24 | 43.05989 | 56.78710 | 36870 ft | 530 kts | 105° |
| 2026-05-06 15:24 | 43.04733 | 56.88624 | 36869 ft | 530 kts | 105° |
| 2026-05-06 15:25 | 43.03465 | 56.98551 | 36869 ft | 530 kts | 105° |
| 2026-05-06 15:25 | 43.02190 | 57.08472 | 36867 ft | 530 kts | 105° |
| 2026-05-06 15:26 | 43.00908 | 57.18370 | 36871 ft | 530 kts | 105° |
| 2026-05-06 15:26 | 42.99616 | 57.28279 | 36867 ft | 530 kts | 105° |
| 2026-05-06 15:27 | 42.98325 | 57.38116 | 36875 ft | 529 kts | 105° |
| 2026-05-06 15:27 | 42.97010 | 57.48064 | 36873 ft | 529 kts | 105° |
| 2026-05-06 15:28 | 42.95701 | 57.57887 | 36861 ft | 529 kts | 105° |
| 2026-05-06 15:28 | 42.94377 | 57.67768 | 36868 ft | 529 kts | 105° |
| 2026-05-06 15:29 | 42.93046 | 57.77623 | 36870 ft | 528 kts | 105° |
| 2026-05-06 15:29 | 42.91705 | 57.87491 | 36866 ft | 528 kts | 105° |
| 2026-05-06 15:30 | 42.90359 | 57.97331 | 36872 ft | 528 kts | 105° |
| 2026-05-06 15:30 | 42.89002 | 58.07181 | 36873 ft | 528 kts | 106° |
| 2026-05-06 15:31 | 42.87637 | 58.17027 | 36868 ft | 528 kts | 106° |
| 2026-05-06 15:31 | 42.86266 | 58.26853 | 36864 ft | 528 kts | 106° |
| 2026-05-06 15:32 | 42.84191 | 58.41601 | 36860 ft | 528 kts | 106° |
| 2026-05-06 15:32 | 42.82796 | 58.51434 | 36859 ft | 528 kts | 106° |
| 2026-05-06 15:33 | 42.81392 | 58.61265 | 36855 ft | 528 kts | 106° |
| 2026-05-06 15:33 | 42.79982 | 58.71076 | 36851 ft | 528 kts | 106° |
| 2026-05-06 15:34 | 42.78562 | 58.80895 | 36864 ft | 528 kts | 106° |
| 2026-05-06 15:34 | 42.77135 | 58.90706 | 36856 ft | 528 kts | 106° |
| 2026-05-06 15:35 | 42.75703 | 59.00495 | 36854 ft | 528 kts | 106° |
| 2026-05-06 15:35 | 42.74249 | 59.10292 | 36853 ft | 528 kts | 106° |
| 2026-05-06 15:36 | 42.72771 | 59.20080 | 36856 ft | 528 kts | 107° |
| 2026-05-06 15:36 | 42.71259 | 59.29839 | 36854 ft | 528 kts | 107° |
| 2026-05-06 15:37 | 42.69751 | 59.39550 | 36855 ft | 528 kts | 107° |
| 2026-05-06 15:37 | 42.68220 | 59.49389 | 36815 ft | 528 kts | 107° |
| 2026-05-06 15:38 | 42.66696 | 59.59143 | 36813 ft | 528 kts | 107° |
| 2026-05-06 15:38 | 42.65172 | 59.68840 | 36815 ft | 528 kts | 107° |
| 2026-05-06 15:39 | 42.63622 | 59.78643 | 36813 ft | 528 kts | 107° |
| 2026-05-06 15:39 | 42.62082 | 59.88325 | 36817 ft | 528 kts | 107° |
| 2026-05-06 15:40 | 42.60523 | 59.98069 | 36820 ft | 528 kts | 107° |
| 2026-05-06 15:40 | 42.58960 | 60.07790 | 36822 ft | 528 kts | 107° |
| 2026-05-06 15:41 | 42.57385 | 60.17522 | 36825 ft | 528 kts | 107° |
| 2026-05-06 15:41 | 42.55801 | 60.27250 | 36828 ft | 528 kts | 107° |
| 2026-05-06 15:42 | 42.54212 | 60.36959 | 36830 ft | 528 kts | 107° |
| 2026-05-06 15:42 | 42.52611 | 60.46684 | 36829 ft | 528 kts | 107° |
| 2026-05-06 15:43 | 42.51001 | 60.56407 | 36831 ft | 528 kts | 107° |
| 2026-05-06 15:43 | 42.49386 | 60.66113 | 36839 ft | 529 kts | 107° |
| 2026-05-06 15:44 | 42.47759 | 60.75833 | 36835 ft | 529 kts | 107° |
| 2026-05-06 15:44 | 42.46123 | 60.85551 | 36837 ft | 529 kts | 107° |
| 2026-05-06 15:45 | 42.44482 | 60.95248 | 36835 ft | 529 kts | 107° |
| 2026-05-06 15:45 | 42.42829 | 61.04959 | 36835 ft | 529 kts | 107° |
| 2026-05-06 15:46 | 42.41167 | 61.14668 | 36836 ft | 529 kts | 107° |
| 2026-05-06 15:46 | 42.39500 | 61.24356 | 36832 ft | 529 kts | 107° |
| 2026-05-06 15:47 | 42.37822 | 61.34055 | 36834 ft | 529 kts | 107° |
| 2026-05-06 15:47 | 42.36147 | 61.43684 | 36834 ft | 529 kts | 107° |
| 2026-05-06 15:48 | 42.34445 | 61.53415 | 36832 ft | 529 kts | 107° |
| 2026-05-06 15:48 | 42.32756 | 61.63020 | 36836 ft | 528 kts | 107° |
| 2026-05-06 15:49 | 42.31050 | 61.72675 | 36835 ft | 528 kts | 107° |
| 2026-05-06 15:49 | 42.29339 | 61.82301 | 36837 ft | 527 kts | 107° |
| 2026-05-06 15:50 | 42.27901 | 61.90358 | 36839 ft | 527 kts | 107° |
| 2026-05-06 15:50 | 42.26177 | 61.99969 | 36836 ft | 526 kts | 107° |
| 2026-05-06 15:51 | 42.24458 | 62.09502 | 36836 ft | 526 kts | 107° |
| 2026-05-06 15:51 | 42.22724 | 62.19068 | 36832 ft | 525 kts | 107° |
| 2026-05-06 15:52 | 42.20981 | 62.28638 | 36833 ft | 525 kts | 107° |
| 2026-05-06 15:52 | 42.19231 | 62.38195 | 36838 ft | 524 kts | 107° |
| 2026-05-06 15:53 | 42.17477 | 62.47726 | 36838 ft | 524 kts | 107° |
| 2026-05-06 15:53 | 42.15711 | 62.57271 | 36849 ft | 525 kts | 107° |
| 2026-05-06 15:54 | 42.13936 | 62.66819 | 36848 ft | 525 kts | 107° |
| 2026-05-06 15:54 | 42.12154 | 62.76356 | 36848 ft | 526 kts | 107° |
| 2026-05-06 15:55 | 42.10387 | 62.85923 | 36852 ft | 526 kts | 106° |
| 2026-05-06 15:55 | 42.08678 | 62.95520 | 36855 ft | 527 kts | 106° |
| 2026-05-06 15:56 | 42.06959 | 63.05095 | 36855 ft | 527 kts | 107° |
| 2026-05-06 15:56 | 42.05138 | 63.14652 | 36857 ft | 527 kts | 107° |
| 2026-05-06 15:57 | 42.03287 | 63.24196 | 36864 ft | 527 kts | 107° |
| 2026-05-06 15:57 | 42.01441 | 63.33742 | 36864 ft | 527 kts | 107° |
| 2026-05-06 15:58 | 41.99611 | 63.43207 | 36869 ft | 527 kts | 107° |
| 2026-05-06 15:58 | 41.97759 | 63.52748 | 36874 ft | 527 kts | 107° |
| 2026-05-06 15:59 | 41.95902 | 63.62267 | 36877 ft | 527 kts | 107° |
| 2026-05-06 15:59 | 41.94035 | 63.71793 | 36878 ft | 527 kts | 107° |
| 2026-05-06 16:00 | 41.92160 | 63.81309 | 36879 ft | 527 kts | 107° |
| 2026-05-06 16:00 | 41.90281 | 63.90804 | 36885 ft | 527 kts | 107° |
| 2026-05-06 16:01 | 41.88391 | 64.00307 | 36902 ft | 526 kts | 107° |
| 2026-05-06 16:01 | 41.86495 | 64.09796 | 36894 ft | 526 kts | 107° |
| 2026-05-06 16:02 | 41.84596 | 64.19256 | 36901 ft | 525 kts | 107° |
| 2026-05-06 16:02 | 41.82688 | 64.28714 | 36908 ft | 525 kts | 107° |
| 2026-05-06 16:03 | 41.80775 | 64.38156 | 36912 ft | 524 kts | 107° |
| 2026-05-06 16:03 | 41.78861 | 64.47556 | 36913 ft | 523 kts | 107° |
| 2026-05-06 16:04 | 41.76938 | 64.56957 | 36919 ft | 523 kts | 107° |
| 2026-05-06 16:04 | 41.75350 | 64.66465 | 36920 ft | 523 kts | 102° |
| 2026-05-06 16:05 | 41.74073 | 64.76050 | 36920 ft | 523 kts | 101° |
| 2026-05-06 16:05 | 41.72825 | 64.85652 | 36923 ft | 523 kts | 101° |
| 2026-05-06 16:06 | 41.71566 | 64.95246 | 36922 ft | 523 kts | 101° |
| 2026-05-06 16:06 | 41.70293 | 65.04813 | 36924 ft | 523 kts | 101° |
| 2026-05-06 16:07 | 41.69017 | 65.14323 | 36922 ft | 522 kts | 101° |
| 2026-05-06 16:07 | 41.67717 | 65.23953 | 36918 ft | 522 kts | 101° |
| 2026-05-06 16:08 | 41.66428 | 65.33433 | 36924 ft | 522 kts | 101° |
| 2026-05-06 16:08 | 41.65122 | 65.42987 | 36927 ft | 522 kts | 101° |
| 2026-05-06 16:09 | 41.63810 | 65.52520 | 36929 ft | 522 kts | 101° |
| 2026-05-06 16:09 | 41.62488 | 65.62061 | 36930 ft | 522 kts | 101° |
| 2026-05-06 16:10 | 41.61159 | 65.71598 | 36929 ft | 522 kts | 101° |
| 2026-05-06 16:10 | 41.59824 | 65.81113 | 36932 ft | 522 kts | 101° |
| 2026-05-06 16:11 | 41.58484 | 65.90643 | 36934 ft | 522 kts | 101° |
| 2026-05-06 16:11 | 41.57127 | 66.00165 | 36934 ft | 522 kts | 101° |
| 2026-05-06 16:12 | 41.55762 | 66.09666 | 36936 ft | 522 kts | 101° |
| 2026-05-06 16:12 | 41.54390 | 66.19178 | 36935 ft | 521 kts | 101° |
| 2026-05-06 16:13 | 41.53021 | 66.28621 | 36936 ft | 521 kts | 101° |
| 2026-05-06 16:13 | 41.51628 | 66.38170 | 36937 ft | 521 kts | 101° |
| 2026-05-06 16:14 | 41.50244 | 66.47604 | 36939 ft | 521 kts | 101° |
| 2026-05-06 16:14 | 41.48843 | 66.57096 | 36942 ft | 521 kts | 101° |
| 2026-05-06 16:15 | 41.47448 | 66.66571 | 36939 ft | 521 kts | 101° |
| 2026-05-06 16:15 | 41.46071 | 66.76067 | 36943 ft | 521 kts | 101° |
| 2026-05-06 16:16 | 41.44688 | 66.85560 | 36941 ft | 521 kts | 101° |
| 2026-05-06 16:16 | 41.43296 | 66.95033 | 36941 ft | 522 kts | 101° |
| 2026-05-06 16:17 | 41.41891 | 67.04523 | 36942 ft | 522 kts | 101° |
| 2026-05-06 16:17 | 41.40478 | 67.14011 | 36944 ft | 522 kts | 101° |
| 2026-05-06 16:18 | 41.39060 | 67.23477 | 36942 ft | 522 kts | 101° |
| 2026-05-06 16:18 | 41.37633 | 67.32945 | 36944 ft | 521 kts | 101° |
| 2026-05-06 16:19 | 41.36201 | 67.42398 | 36946 ft | 520 kts | 101° |
| 2026-05-06 16:19 | 41.34764 | 67.51822 | 36946 ft | 520 kts | 101° |
| 2026-05-06 16:20 | 41.33319 | 67.61250 | 36945 ft | 519 kts | 101° |
| 2026-05-06 16:20 | 41.31867 | 67.70658 | 36947 ft | 518 kts | 101° |
| 2026-05-06 16:21 | 41.30414 | 67.80030 | 36948 ft | 517 kts | 101° |
| 2026-05-06 16:21 | 41.28963 | 67.89332 | 36949 ft | 516 kts | 101° |
| 2026-05-06 16:22 | 41.27851 | 67.98818 | 36950 ft | 515 kts | 96° |
| 2026-05-06 16:22 | 41.27000 | 68.08197 | 36950 ft | 515 kts | 95° |
| 2026-05-06 16:23 | 41.26166 | 68.17654 | 36953 ft | 515 kts | 95° |
| 2026-05-06 16:23 | 41.25319 | 68.27143 | 36952 ft | 514 kts | 96° |
| 2026-05-06 16:24 | 41.24466 | 68.36502 | 36953 ft | 513 kts | 96° |
| 2026-05-06 16:24 | 41.23597 | 68.45919 | 36954 ft | 513 kts | 96° |
| 2026-05-06 16:25 | 41.22721 | 68.55340 | 36955 ft | 514 kts | 96° |
| 2026-05-06 16:25 | 41.21839 | 68.64750 | 36956 ft | 514 kts | 96° |
| 2026-05-06 16:26 | 41.20947 | 68.74176 | 36959 ft | 514 kts | 96° |
| 2026-05-06 16:26 | 41.20048 | 68.83600 | 36962 ft | 514 kts | 96° |
| 2026-05-06 16:27 | 41.19269 | 68.93021 | 36968 ft | 513 kts | 91° |
| 2026-05-06 16:27 | 41.18968 | 69.02497 | 36965 ft | 513 kts | 90° |
| 2026-05-06 16:28 | 41.18731 | 69.11972 | 36966 ft | 513 kts | 90° |
| 2026-05-06 16:28 | 41.18492 | 69.21428 | 36967 ft | 513 kts | 90° |
| 2026-05-06 16:29 | 41.18009 | 69.30885 | 36966 ft | 514 kts | 95° |
| 2026-05-06 16:29 | 41.17128 | 69.40305 | 36969 ft | 514 kts | 95° |
| 2026-05-06 16:30 | 41.16397 | 69.48122 | 36978 ft | 514 kts | 95° |
| 2026-05-06 16:30 | 41.15447 | 69.59124 | 36993 ft | 513 kts | 94° |
| 2026-05-06 16:31 | 41.14659 | 69.68540 | 37020 ft | 513 kts | 94° |
| 2026-05-06 16:31 | 41.13868 | 69.77934 | 37048 ft | 513 kts | 94° |
| 2026-05-06 16:32 | 41.13066 | 69.87329 | 37062 ft | 512 kts | 94° |
| 2026-05-06 16:32 | 41.12255 | 69.96712 | 37081 ft | 512 kts | 94° |
| 2026-05-06 16:33 | 41.11441 | 70.06072 | 37096 ft | 512 kts | 94° |
| 2026-05-06 16:34 | 41.10209 | 70.20041 | 37105 ft | 510 kts | 94° |
| 2026-05-06 16:34 | 41.10225 | 70.29379 | 37111 ft | 505 kts | 82° |
| 2026-05-06 16:35 | 41.10854 | 70.38632 | 37118 ft | 504 kts | 81° |
| 2026-05-06 16:35 | 41.11554 | 70.47877 | 37121 ft | 504 kts | 81° |
| 2026-05-06 16:36 | 41.12239 | 70.57122 | 37125 ft | 503 kts | 81° |
| 2026-05-06 16:36 | 41.12897 | 70.66348 | 37127 ft | 503 kts | 82° |
| 2026-05-06 16:37 | 41.13549 | 70.75593 | 37114 ft | 503 kts | 82° |
| 2026-05-06 16:37 | 41.14191 | 70.84836 | 37106 ft | 503 kts | 82° |
| 2026-05-06 16:38 | 41.14822 | 70.94085 | 37101 ft | 503 kts | 82° |
| 2026-05-06 16:38 | 41.15343 | 71.01823 | 37091 ft | 503 kts | 82° |
| 2026-05-06 16:39 | 41.15955 | 71.10987 | 37076 ft | 502 kts | 82° |
| 2026-05-06 16:39 | 41.16565 | 71.20228 | 37053 ft | 503 kts | 82° |
| 2026-05-06 16:40 | 41.17169 | 71.29474 | 37036 ft | 502 kts | 82° |
| 2026-05-06 16:40 | 41.17763 | 71.38700 | 37019 ft | 502 kts | 82° |
| 2026-05-06 16:41 | 41.18351 | 71.47934 | 37018 ft | 502 kts | 82° |
| 2026-05-06 16:41 | 41.18930 | 71.57151 | 37011 ft | 501 kts | 82° |
| 2026-05-06 16:42 | 41.19503 | 71.66381 | 37022 ft | 501 kts | 81° |
| 2026-05-06 16:42 | 41.20068 | 71.75608 | 37026 ft | 501 kts | 81° |
| 2026-05-06 16:43 | 41.20626 | 71.84772 | 37036 ft | 501 kts | 81° |
| 2026-05-06 16:43 | 41.21174 | 71.94040 | 37037 ft | 501 kts | 81° |
| 2026-05-06 16:44 | 41.21705 | 72.03200 | 37061 ft | 500 kts | 81° |
| 2026-05-06 16:44 | 41.22233 | 72.12401 | 37059 ft | 500 kts | 81° |
| 2026-05-06 16:45 | 41.22756 | 72.21609 | 37072 ft | 500 kts | 81° |
| 2026-05-06 16:45 | 41.23273 | 72.30815 | 37079 ft | 499 kts | 81° |
| 2026-05-06 16:46 | 41.23792 | 72.39999 | 37086 ft | 499 kts | 81° |
| 2026-05-06 16:46 | 41.24305 | 72.49194 | 37100 ft | 499 kts | 81° |
| 2026-05-06 16:47 | 41.24806 | 72.58377 | 37111 ft | 498 kts | 81° |
| 2026-05-06 16:47 | 41.25301 | 72.67531 | 37119 ft | 497 kts | 81° |
| 2026-05-06 16:48 | 41.25776 | 72.76688 | 37133 ft | 496 kts | 81° |
| 2026-05-06 16:48 | 41.26242 | 72.85834 | 37139 ft | 495 kts | 81° |
| 2026-05-06 16:49 | 41.26699 | 72.94967 | 37145 ft | 494 kts | 81° |
| 2026-05-06 16:49 | 41.27154 | 73.04064 | 37152 ft | 493 kts | 81° |
| 2026-05-06 16:50 | 41.27602 | 73.13162 | 37161 ft | 492 kts | 81° |
| 2026-05-06 16:50 | 41.28039 | 73.22235 | 37160 ft | 491 kts | 81° |
| 2026-05-06 16:51 | 41.28472 | 73.31292 | 37167 ft | 491 kts | 81° |
| 2026-05-06 16:51 | 41.28891 | 73.40367 | 37177 ft | 491 kts | 81° |
| 2026-05-06 16:52 | 41.29304 | 73.49438 | 37194 ft | 491 kts | 82° |
| 2026-05-06 16:52 | 41.29713 | 73.58483 | 37193 ft | 490 kts | 82° |
| 2026-05-06 16:53 | 41.30115 | 73.67538 | 37203 ft | 490 kts | 82° |
| 2026-05-06 16:53 | 41.30507 | 73.76590 | 37194 ft | 490 kts | 82° |
| 2026-05-06 16:54 | 41.30892 | 73.85576 | 37198 ft | 491 kts | 82° |
| 2026-05-06 16:54 | 41.31273 | 73.94643 | 37209 ft | 491 kts | 83° |
| 2026-05-06 16:55 | 41.31662 | 74.03713 | 37205 ft | 490 kts | 82° |
| 2026-05-06 16:55 | 41.32302 | 74.12724 | 37210 ft | 490 kts | 80° |
| 2026-05-06 16:56 | 41.33022 | 74.21746 | 37216 ft | 490 kts | 81° |
| 2026-05-06 16:56 | 41.33695 | 74.30766 | 37223 ft | 491 kts | 81° |
| 2026-05-06 16:57 | 41.34334 | 74.39822 | 37219 ft | 491 kts | 81° |
| 2026-05-06 16:57 | 41.34958 | 74.48882 | 37203 ft | 491 kts | 81° |
| 2026-05-06 16:58 | 41.35568 | 74.57932 | 37223 ft | 492 kts | 82° |
| 2026-05-06 16:58 | 41.36185 | 74.67000 | 37221 ft | 492 kts | 82° |
| 2026-05-06 16:59 | 41.36796 | 74.76075 | 37220 ft | 493 kts | 82° |
| 2026-05-06 16:59 | 41.37398 | 74.85148 | 37225 ft | 493 kts | 82° |
| 2026-05-06 17:00 | 41.37990 | 74.94185 | 37229 ft | 493 kts | 82° |
| 2026-05-06 17:00 | 41.38576 | 75.03279 | 37233 ft | 494 kts | 82° |
| 2026-05-06 17:01 | 41.39156 | 75.12396 | 37230 ft | 494 kts | 82° |
| 2026-05-06 17:01 | 41.39729 | 75.21519 | 37234 ft | 494 kts | 82° |
| 2026-05-06 17:02 | 41.40295 | 75.30633 | 37239 ft | 494 kts | 82° |
| 2026-05-06 17:02 | 41.40855 | 75.39768 | 37243 ft | 495 kts | 83° |
| 2026-05-06 17:03 | 41.41409 | 75.48910 | 37232 ft | 495 kts | 83° |
| 2026-05-06 17:03 | 41.41955 | 75.58039 | 37225 ft | 495 kts | 83° |
| 2026-05-06 17:04 | 41.42493 | 75.67185 | 37221 ft | 495 kts | 83° |
| 2026-05-06 17:04 | 41.43026 | 75.76333 | 37219 ft | 495 kts | 83° |
| 2026-05-06 17:05 | 41.43553 | 75.85487 | 37218 ft | 495 kts | 83° |
| 2026-05-06 17:05 | 41.44069 | 75.94629 | 37226 ft | 496 kts | 83° |
| 2026-05-06 17:06 | 41.44580 | 76.03791 | 37231 ft | 496 kts | 83° |
| 2026-05-06 17:06 | 41.45084 | 76.12960 | 37235 ft | 496 kts | 84° |
| 2026-05-06 17:07 | 41.45582 | 76.22120 | 37245 ft | 496 kts | 84° |
| 2026-05-06 17:07 | 41.46074 | 76.31302 | 37252 ft | 496 kts | 84° |
| 2026-05-06 17:08 | 41.46557 | 76.40474 | 37257 ft | 496 kts | 84° |
| 2026-05-06 17:08 | 41.47030 | 76.49603 | 37267 ft | 497 kts | 84° |
| 2026-05-06 17:09 | 41.47501 | 76.58797 | 37279 ft | 497 kts | 84° |
| 2026-05-06 17:09 | 41.47962 | 76.67981 | 37285 ft | 497 kts | 84° |
| 2026-05-06 17:10 | 41.48414 | 76.77191 | 37290 ft | 497 kts | 85° |
| 2026-05-06 17:10 | 41.48862 | 76.86406 | 37296 ft | 498 kts | 85° |
| 2026-05-06 17:11 | 41.49304 | 76.95614 | 37306 ft | 498 kts | 85° |
| 2026-05-06 17:11 | 41.49739 | 77.04843 | 37319 ft | 499 kts | 85° |
| 2026-05-06 17:12 | 41.50166 | 77.14083 | 37327 ft | 499 kts | 85° |
| 2026-05-06 17:12 | 41.50586 | 77.23333 | 37334 ft | 499 kts | 85° |
| 2026-05-06 17:13 | 41.50999 | 77.32578 | 37344 ft | 500 kts | 85° |
| 2026-05-06 17:13 | 41.51405 | 77.41844 | 37349 ft | 500 kts | 85° |
| 2026-05-06 17:14 | 41.51804 | 77.51117 | 37362 ft | 501 kts | 85° |
| 2026-05-06 17:14 | 41.52194 | 77.60371 | 37658 ft | 498 kts | 85° |
| 2026-05-06 17:14 | 41.52385 | 77.64985 | 38020 ft | 496 kts | 85° |
| 2026-05-06 17:15 | 41.52573 | 77.69568 | 38312 ft | 495 kts | 85° |
| 2026-05-06 17:15 | 41.52759 | 77.74145 | 38542 ft | 494 kts | 85° |
| 2026-05-06 17:15 | 41.52945 | 77.78734 | 38773 ft | 494 kts | 85° |
| 2026-05-06 17:15 | 41.53128 | 77.83305 | 39015 ft | 494 kts | 85° |
| 2026-05-06 17:16 | 41.53309 | 77.87873 | 39186 ft | 493 kts | 85° |
| 2026-05-06 17:16 | 41.53488 | 77.92442 | 39329 ft | 494 kts | 85° |
| 2026-05-06 17:16 | 41.53666 | 77.97044 | 39374 ft | 497 kts | 85° |
| 2026-05-06 17:17 | 41.54021 | 78.06313 | 39377 ft | 500 kts | 85° |
| 2026-05-06 17:17 | 41.54368 | 78.15569 | 39380 ft | 499 kts | 85° |
| 2026-05-06 17:18 | 41.54706 | 78.24764 | 39380 ft | 499 kts | 85° |
| 2026-05-06 17:18 | 41.55037 | 78.34066 | 39381 ft | 499 kts | 85° |
| 2026-05-06 17:19 | 41.55358 | 78.43260 | 39382 ft | 499 kts | 85° |
| 2026-05-06 17:19 | 41.55674 | 78.52511 | 39377 ft | 498 kts | 85° |
| 2026-05-06 17:20 | 41.55981 | 78.61738 | 39365 ft | 498 kts | 85° |
| 2026-05-06 17:20 | 41.56281 | 78.70975 | 39350 ft | 497 kts | 85° |
| 2026-05-06 17:21 | 41.56525 | 78.80210 | 39328 ft | 498 kts | 89° |
| 2026-05-06 17:21 | 41.55497 | 78.89353 | 39313 ft | 499 kts | 102° |
| 2026-05-06 17:22 | 41.53774 | 78.98314 | 39300 ft | 499 kts | 104° |
| 2026-05-06 17:22 | 41.51956 | 79.07241 | 39263 ft | 498 kts | 104° |
| 2026-05-06 17:23 | 41.50153 | 79.16133 | 39239 ft | 497 kts | 104° |
| 2026-05-06 17:23 | 41.48362 | 79.25035 | 39213 ft | 497 kts | 104° |
| 2026-05-06 17:24 | 41.46569 | 79.33938 | 39192 ft | 497 kts | 104° |
| 2026-05-06 17:24 | 41.44770 | 79.42827 | 39170 ft | 497 kts | 104° |
| 2026-05-06 17:25 | 41.42959 | 79.51732 | 39157 ft | 498 kts | 105° |
| 2026-05-06 17:25 | 41.41138 | 79.60642 | 39152 ft | 498 kts | 105° |
| 2026-05-06 17:26 | 41.39311 | 79.69545 | 39152 ft | 499 kts | 105° |
| 2026-05-06 17:26 | 41.37785 | 79.76956 | 39139 ft | 500 kts | 105° |
| 2026-05-06 17:27 | 41.35937 | 79.85888 | 39138 ft | 501 kts | 105° |
| 2026-05-06 17:27 | 41.34080 | 79.94829 | 39140 ft | 501 kts | 105° |
| 2026-05-06 17:28 | 41.32218 | 80.03759 | 39134 ft | 501 kts | 105° |
| 2026-05-06 17:28 | 41.30345 | 80.12698 | 39133 ft | 501 kts | 105° |
| 2026-05-06 17:29 | 41.28467 | 80.21627 | 39127 ft | 501 kts | 105° |
| 2026-05-06 17:29 | 41.26585 | 80.30534 | 39125 ft | 501 kts | 105° |
| 2026-05-06 17:30 | 41.24691 | 80.39447 | 39125 ft | 501 kts | 105° |
| 2026-05-06 17:30 | 41.22780 | 80.48344 | 39122 ft | 500 kts | 105° |
| 2026-05-06 17:31 | 41.20867 | 80.57207 | 39122 ft | 499 kts | 105° |
| 2026-05-06 17:31 | 41.18949 | 80.66068 | 39124 ft | 499 kts | 105° |
| 2026-05-06 17:32 | 41.17027 | 80.74915 | 39123 ft | 498 kts | 105° |
| 2026-05-06 17:32 | 41.15104 | 80.83735 | 39118 ft | 498 kts | 105° |
| 2026-05-06 17:33 | 41.13171 | 80.92564 | 39117 ft | 498 kts | 105° |
| 2026-05-06 17:33 | 41.11231 | 81.01386 | 39113 ft | 498 kts | 105° |
| 2026-05-06 17:34 | 41.09288 | 81.10188 | 39115 ft | 498 kts | 105° |
| 2026-05-06 17:34 | 41.07336 | 81.18997 | 39117 ft | 498 kts | 105° |
| 2026-05-06 17:35 | 41.05389 | 81.27743 | 39116 ft | 498 kts | 105° |
| 2026-05-06 17:35 | 41.03414 | 81.36585 | 39116 ft | 498 kts | 105° |
| 2026-05-06 17:36 | 41.00468 | 81.49705 | 39114 ft | 498 kts | 105° |
| 2026-05-06 17:36 | 40.98485 | 81.58491 | 39118 ft | 498 kts | 105° |
| 2026-05-06 17:37 | 40.96497 | 81.67269 | 39120 ft | 498 kts | 105° |
| 2026-05-06 17:37 | 40.94722 | 81.76104 | 39116 ft | 497 kts | 102° |
| 2026-05-06 17:38 | 40.93115 | 81.85009 | 39119 ft | 498 kts | 102° |
| 2026-05-06 17:38 | 40.91476 | 81.93890 | 39119 ft | 498 kts | 102° |
| 2026-05-06 17:39 | 40.89786 | 82.02775 | 39119 ft | 498 kts | 103° |
| 2026-05-06 17:39 | 40.88076 | 82.11657 | 39119 ft | 499 kts | 103° |
| 2026-05-06 17:40 | 40.86360 | 82.20524 | 39121 ft | 499 kts | 103° |
| 2026-05-06 17:40 | 40.84636 | 82.29403 | 39120 ft | 499 kts | 103° |
| 2026-05-06 17:41 | 40.82906 | 82.38282 | 39122 ft | 499 kts | 103° |
| 2026-05-06 17:41 | 40.81171 | 82.47147 | 39119 ft | 499 kts | 103° |
| 2026-05-06 17:42 | 40.79425 | 82.56027 | 39120 ft | 500 kts | 103° |
| 2026-05-06 17:42 | 40.77672 | 82.64902 | 39120 ft | 500 kts | 103° |
| 2026-05-06 17:43 | 40.75914 | 82.73762 | 39121 ft | 500 kts | 103° |
| 2026-05-06 17:43 | 40.74158 | 82.82574 | 39127 ft | 500 kts | 103° |
| 2026-05-06 17:44 | 40.72383 | 82.91445 | 39124 ft | 500 kts | 103° |
| 2026-05-06 17:44 | 40.70605 | 83.00293 | 39122 ft | 500 kts | 103° |
| 2026-05-06 17:45 | 40.68817 | 83.09149 | 39120 ft | 500 kts | 104° |
| 2026-05-06 17:45 | 40.67024 | 83.17995 | 39121 ft | 499 kts | 104° |
| 2026-05-06 17:46 | 40.65228 | 83.26818 | 39125 ft | 499 kts | 104° |
| 2026-05-06 17:46 | 40.63422 | 83.35648 | 39125 ft | 499 kts | 104° |
| 2026-05-06 17:47 | 40.61610 | 83.44474 | 39128 ft | 499 kts | 104° |
| 2026-05-06 17:47 | 40.59793 | 83.53284 | 39125 ft | 499 kts | 104° |
| 2026-05-06 17:48 | 40.57968 | 83.62100 | 39127 ft | 499 kts | 104° |
| 2026-05-06 17:48 | 40.56135 | 83.70916 | 39124 ft | 499 kts | 104° |
| 2026-05-06 17:49 | 40.54298 | 83.79714 | 39125 ft | 500 kts | 104° |
| 2026-05-06 17:49 | 40.52451 | 83.88522 | 39129 ft | 500 kts | 104° |
| 2026-05-06 17:50 | 40.50605 | 83.97332 | 39128 ft | 500 kts | 104° |
| 2026-05-06 17:50 | 40.48823 | 84.06149 | 39127 ft | 500 kts | 104° |
| 2026-05-06 17:51 | 40.47058 | 84.14923 | 39127 ft | 500 kts | 104° |
| 2026-05-06 17:51 | 40.45265 | 84.23748 | 39128 ft | 500 kts | 104° |
| 2026-05-06 17:52 | 40.43461 | 84.32551 | 39128 ft | 500 kts | 104° |
| 2026-05-06 17:52 | 40.41645 | 84.41369 | 39128 ft | 500 kts | 104° |
| 2026-05-06 17:53 | 40.39822 | 84.50185 | 39127 ft | 500 kts | 104° |
| 2026-05-06 17:53 | 40.37995 | 84.58985 | 39126 ft | 501 kts | 104° |
| 2026-05-06 17:54 | 40.36158 | 84.67797 | 39122 ft | 501 kts | 105° |
| 2026-05-06 17:54 | 40.34314 | 84.76605 | 39123 ft | 501 kts | 105° |
| 2026-05-06 17:55 | 40.32466 | 84.85396 | 39120 ft | 501 kts | 105° |
| 2026-05-06 17:55 | 40.30607 | 84.94202 | 39123 ft | 501 kts | 105° |
| 2026-05-06 17:56 | 40.28740 | 85.03009 | 39121 ft | 501 kts | 105° |
| 2026-05-06 17:56 | 40.26869 | 85.11797 | 39116 ft | 501 kts | 105° |
| 2026-05-06 17:57 | 40.24988 | 85.20597 | 39115 ft | 502 kts | 105° |
| 2026-05-06 17:57 | 40.23100 | 85.29398 | 39116 ft | 502 kts | 105° |
| 2026-05-06 17:58 | 40.21206 | 85.38185 | 39115 ft | 503 kts | 105° |
| 2026-05-06 17:58 | 40.19302 | 85.46988 | 39114 ft | 503 kts | 105° |
| 2026-05-06 17:59 | 40.17403 | 85.55729 | 39113 ft | 503 kts | 106° |
| 2026-05-06 17:59 | 40.15474 | 85.64572 | 39113 ft | 503 kts | 106° |
| 2026-05-06 18:00 | 40.13561 | 85.73312 | 39116 ft | 503 kts | 106° |
| 2026-05-06 18:00 | 40.11626 | 85.82110 | 39113 ft | 504 kts | 106° |
| 2026-05-06 18:01 | 40.09674 | 85.90952 | 39111 ft | 504 kts | 106° |
| 2026-05-06 18:01 | 40.07738 | 85.99688 | 39110 ft | 504 kts | 106° |
| 2026-05-06 18:02 | 40.05591 | 86.08384 | 39112 ft | 504 kts | 110° |
| 2026-05-06 18:02 | 40.03155 | 86.16965 | 39108 ft | 504 kts | 111° |
| 2026-05-06 18:03 | 40.00732 | 86.25550 | 39106 ft | 504 kts | 110° |
| 2026-05-06 18:03 | 39.98358 | 86.34144 | 39104 ft | 504 kts | 110° |
| 2026-05-06 18:04 | 39.95994 | 86.42758 | 39104 ft | 504 kts | 110° |
| 2026-05-06 18:04 | 39.93624 | 86.51372 | 39104 ft | 505 kts | 110° |
| 2026-05-06 18:05 | 39.91243 | 86.59986 | 39100 ft | 505 kts | 110° |
| 2026-05-06 18:05 | 39.88856 | 86.68586 | 39095 ft | 506 kts | 110° |
| 2026-05-06 18:06 | 39.86456 | 86.77204 | 39094 ft | 506 kts | 111° |
| 2026-05-06 18:06 | 39.84052 | 86.85811 | 39093 ft | 507 kts | 111° |
| 2026-05-06 18:07 | 39.81634 | 86.94435 | 39091 ft | 507 kts | 111° |
| 2026-05-06 18:07 | 39.79208 | 87.03064 | 39090 ft | 508 kts | 111° |
| 2026-05-06 18:08 | 39.76774 | 87.11686 | 39086 ft | 509 kts | 111° |
| 2026-05-06 18:08 | 39.74326 | 87.20331 | 39080 ft | 510 kts | 111° |
| 2026-05-06 18:09 | 39.71868 | 87.28983 | 39084 ft | 511 kts | 111° |
| 2026-05-06 18:09 | 39.69404 | 87.37628 | 39081 ft | 511 kts | 111° |
| 2026-05-06 18:10 | 39.66926 | 87.46295 | 39079 ft | 512 kts | 111° |
| 2026-05-06 18:10 | 39.64454 | 87.54911 | 39075 ft | 513 kts | 111° |
| 2026-05-06 18:11 | 39.62363 | 87.62176 | 39072 ft | 514 kts | 111° |
| 2026-05-06 18:11 | 39.59451 | 87.72261 | 39074 ft | 514 kts | 112° |
| 2026-05-06 18:12 | 39.56934 | 87.80947 | 39073 ft | 515 kts | 112° |
| 2026-05-06 18:12 | 39.54413 | 87.89619 | 39075 ft | 515 kts | 112° |
| 2026-05-06 18:13 | 39.51879 | 87.98304 | 39074 ft | 515 kts | 112° |
| 2026-05-06 18:13 | 39.49340 | 88.06983 | 39073 ft | 515 kts | 112° |
| 2026-05-06 18:14 | 39.46798 | 88.15640 | 39070 ft | 515 kts | 112° |
| 2026-05-06 18:14 | 39.44662 | 88.22893 | 39077 ft | 515 kts | 112° |
| 2026-05-06 18:15 | 39.42122 | 88.31495 | 39076 ft | 515 kts | 112° |
| 2026-05-06 18:15 | 39.39557 | 88.40149 | 39074 ft | 515 kts | 112° |
| 2026-05-06 18:16 | 39.36990 | 88.48786 | 39080 ft | 516 kts | 113° |
| 2026-05-06 18:16 | 39.34409 | 88.57439 | 39076 ft | 516 kts | 113° |
| 2026-05-06 18:17 | 39.31820 | 88.66092 | 39082 ft | 516 kts | 113° |
| 2026-05-06 18:17 | 39.29222 | 88.74747 | 39084 ft | 517 kts | 113° |
| 2026-05-06 18:18 | 39.26620 | 88.83389 | 39089 ft | 517 kts | 113° |
| 2026-05-06 18:18 | 39.24005 | 88.92047 | 39093 ft | 518 kts | 114° |
| 2026-05-06 18:19 | 39.21398 | 89.00650 | 39099 ft | 518 kts | 114° |
| 2026-05-06 18:19 | 39.18769 | 89.09298 | 39109 ft | 519 kts | 114° |
| 2026-05-06 18:20 | 39.16127 | 89.17962 | 39124 ft | 519 kts | 114° |
| 2026-05-06 18:20 | 39.13480 | 89.26613 | 39132 ft | 520 kts | 114° |
| 2026-05-06 18:21 | 39.10821 | 89.35276 | 39145 ft | 520 kts | 114° |
| 2026-05-06 18:21 | 39.08155 | 89.43935 | 39159 ft | 520 kts | 114° |
| 2026-05-06 18:22 | 39.05486 | 89.52577 | 39175 ft | 520 kts | 115° |
| 2026-05-06 18:22 | 39.02805 | 89.61230 | 39192 ft | 520 kts | 115° |
| 2026-05-06 18:23 | 39.00134 | 89.69822 | 39215 ft | 521 kts | 115° |
| 2026-05-06 18:23 | 38.97425 | 89.78512 | 39210 ft | 521 kts | 115° |
| 2026-05-06 18:24 | 38.94741 | 89.87094 | 39229 ft | 521 kts | 115° |
| 2026-05-06 18:24 | 38.92031 | 89.95730 | 39245 ft | 521 kts | 115° |
| 2026-05-06 18:25 | 38.89316 | 90.04360 | 39248 ft | 521 kts | 115° |
| 2026-05-06 18:25 | 38.86598 | 90.12968 | 39259 ft | 521 kts | 115° |
| 2026-05-06 18:26 | 38.83870 | 90.21585 | 39267 ft | 521 kts | 115° |
| 2026-05-06 18:26 | 38.81141 | 90.30177 | 39276 ft | 521 kts | 115° |
| 2026-05-06 18:27 | 38.78402 | 90.38777 | 39280 ft | 521 kts | 115° |
| 2026-05-06 18:27 | 38.75657 | 90.47370 | 39289 ft | 521 kts | 115° |
| 2026-05-06 18:28 | 38.72911 | 90.55940 | 39290 ft | 521 kts | 115° |
| 2026-05-06 18:28 | 38.70154 | 90.64517 | 39293 ft | 520 kts | 116° |
| 2026-05-06 18:29 | 38.67407 | 90.73087 | 39292 ft | 521 kts | 114° |
| 2026-05-06 18:29 | 38.64950 | 90.81804 | 39278 ft | 522 kts | 112° |
| 2026-05-06 18:30 | 38.62611 | 90.90530 | 39281 ft | 522 kts | 112° |
| 2026-05-06 18:30 | 38.60205 | 90.99284 | 39270 ft | 521 kts | 113° |
| 2026-05-06 18:31 | 38.57761 | 91.08001 | 39259 ft | 522 kts | 113° |
| 2026-05-06 18:31 | 38.55295 | 91.16728 | 39247 ft | 522 kts | 113° |
| 2026-05-06 18:32 | 38.52823 | 91.25451 | 39242 ft | 522 kts | 114° |
| 2026-05-06 18:32 | 38.50350 | 91.34156 | 39231 ft | 522 kts | 114° |
| 2026-05-06 18:33 | 38.47866 | 91.42871 | 39224 ft | 522 kts | 114° |
| 2026-05-06 18:33 | 38.45376 | 91.51583 | 39223 ft | 522 kts | 114° |
| 2026-05-06 18:34 | 38.42882 | 91.60276 | 39211 ft | 522 kts | 114° |
| 2026-05-06 18:34 | 38.40378 | 91.68980 | 39215 ft | 523 kts | 114° |
| 2026-05-06 18:35 | 38.37870 | 91.77664 | 39207 ft | 523 kts | 115° |
| 2026-05-06 18:35 | 38.35350 | 91.86365 | 39204 ft | 523 kts | 115° |
| 2026-05-06 18:36 | 38.32821 | 91.95069 | 39199 ft | 524 kts | 115° |
| 2026-05-06 18:36 | 38.30281 | 92.03780 | 39196 ft | 525 kts | 115° |
| 2026-05-06 18:37 | 38.27735 | 92.12484 | 39193 ft | 526 kts | 115° |
| 2026-05-06 18:37 | 38.25175 | 92.21209 | 39190 ft | 526 kts | 115° |
| 2026-05-06 18:38 | 38.22608 | 92.29927 | 39188 ft | 527 kts | 115° |
| 2026-05-06 18:38 | 38.20027 | 92.38667 | 39183 ft | 528 kts | 115° |
| 2026-05-06 18:39 | 38.17437 | 92.47411 | 39181 ft | 529 kts | 115° |
| 2026-05-06 18:40 | 38.13151 | 92.60199 | 39175 ft | 525 kts | 122° |
| 2026-05-06 18:40 | 38.09880 | 92.68544 | 39172 ft | 525 kts | 122° |
| 2026-05-06 18:41 | 38.06693 | 92.76832 | 39163 ft | 526 kts | 121° |
| 2026-05-06 18:41 | 38.03539 | 92.85215 | 39157 ft | 526 kts | 121° |
| 2026-05-06 18:42 | 38.00403 | 92.93591 | 39153 ft | 526 kts | 121° |
| 2026-05-06 18:42 | 37.97256 | 93.01974 | 39148 ft | 526 kts | 121° |
| 2026-05-06 18:43 | 37.94099 | 93.10348 | 39142 ft | 526 kts | 121° |
| 2026-05-06 18:43 | 37.90941 | 93.18700 | 39130 ft | 526 kts | 121° |
| 2026-05-06 18:44 | 37.87770 | 93.27059 | 39126 ft | 526 kts | 121° |
| 2026-05-06 18:44 | 37.84593 | 93.35413 | 39119 ft | 527 kts | 121° |
| 2026-05-06 18:45 | 37.81415 | 93.43748 | 39125 ft | 527 kts | 122° |
| 2026-05-06 18:45 | 37.78226 | 93.52091 | 39117 ft | 527 kts | 122° |
| 2026-05-06 18:46 | 37.75031 | 93.60424 | 39105 ft | 526 kts | 122° |
| 2026-05-06 18:46 | 37.71838 | 93.68732 | 39093 ft | 526 kts | 122° |
| 2026-05-06 18:47 | 37.68633 | 93.77045 | 39093 ft | 526 kts | 122° |
| 2026-05-06 18:47 | 37.65430 | 93.85334 | 39082 ft | 526 kts | 122° |
| 2026-05-06 18:48 | 37.62216 | 93.93628 | 39077 ft | 526 kts | 123° |
| 2026-05-06 18:48 | 37.58996 | 94.01913 | 39070 ft | 526 kts | 123° |
| 2026-05-06 18:49 | 37.55772 | 94.10190 | 39070 ft | 526 kts | 123° |
| 2026-05-06 18:49 | 37.52546 | 94.18448 | 39066 ft | 526 kts | 123° |
| 2026-05-06 18:50 | 37.49329 | 94.26662 | 39062 ft | 526 kts | 123° |
| 2026-05-06 18:50 | 37.46067 | 94.34969 | 39055 ft | 527 kts | 123° |
| 2026-05-06 18:51 | 37.42834 | 94.43180 | 39054 ft | 527 kts | 123° |
| 2026-05-06 18:51 | 37.39572 | 94.51444 | 39048 ft | 527 kts | 123° |
| 2026-05-06 18:52 | 37.36308 | 94.59690 | 39049 ft | 527 kts | 124° |
| 2026-05-06 18:52 | 37.33031 | 94.67948 | 39041 ft | 528 kts | 124° |
| 2026-05-06 18:53 | 37.29748 | 94.76200 | 39033 ft | 528 kts | 124° |
| 2026-05-06 18:53 | 37.26464 | 94.84433 | 39028 ft | 528 kts | 124° |
| 2026-05-06 18:54 | 37.23170 | 94.92671 | 39029 ft | 528 kts | 124° |
| 2026-05-06 18:54 | 37.19871 | 95.00898 | 39024 ft | 527 kts | 124° |
| 2026-05-06 18:55 | 37.16573 | 95.09100 | 39016 ft | 527 kts | 124° |
| 2026-05-06 18:55 | 37.13265 | 95.17305 | 39017 ft | 527 kts | 124° |
| 2026-05-06 18:56 | 37.09952 | 95.25502 | 39017 ft | 527 kts | 124° |
| 2026-05-06 18:56 | 37.06640 | 95.33676 | 39012 ft | 527 kts | 124° |
| 2026-05-06 18:57 | 37.03317 | 95.41856 | 39010 ft | 527 kts | 124° |
| 2026-05-06 18:57 | 36.99990 | 95.50027 | 39007 ft | 527 kts | 124° |
| 2026-05-06 18:58 | 36.96721 | 95.58226 | 39005 ft | 528 kts | 123° |
| 2026-05-06 18:58 | 36.93496 | 95.66480 | 39007 ft | 528 kts | 123° |
| 2026-05-06 18:59 | 36.90279 | 95.74673 | 39007 ft | 528 kts | 123° |
| 2026-05-06 18:59 | 36.87004 | 95.82954 | 39005 ft | 529 kts | 123° |
| 2026-05-06 19:00 | 36.83755 | 95.91139 | 39006 ft | 530 kts | 123° |
| 2026-05-06 19:00 | 36.80474 | 95.99380 | 39002 ft | 530 kts | 123° |
| 2026-05-06 19:01 | 36.77192 | 96.07609 | 39003 ft | 531 kts | 123° |
| 2026-05-06 19:01 | 36.73920 | 96.15875 | 39003 ft | 532 kts | 123° |
| 2026-05-06 19:02 | 36.70649 | 96.24134 | 39005 ft | 532 kts | 123° |
| 2026-05-06 19:02 | 36.67363 | 96.32406 | 39009 ft | 533 kts | 123° |
| 2026-05-06 19:03 | 36.64068 | 96.40674 | 39004 ft | 533 kts | 123° |
| 2026-05-06 19:03 | 36.61327 | 96.47535 | 39009 ft | 533 kts | 123° |
| 2026-05-06 19:04 | 36.58019 | 96.55793 | 39012 ft | 533 kts | 123° |
| 2026-05-06 19:04 | 36.54728 | 96.64042 | 39016 ft | 533 kts | 123° |
| 2026-05-06 19:05 | 36.51476 | 96.72335 | 39018 ft | 533 kts | 123° |
| 2026-05-06 19:05 | 36.48224 | 96.80622 | 39020 ft | 533 kts | 123° |
| 2026-05-06 19:06 | 36.44967 | 96.88881 | 39022 ft | 533 kts | 123° |
| 2026-05-06 19:06 | 36.41697 | 96.97138 | 39026 ft | 532 kts | 123° |
| 2026-05-06 19:07 | 36.38422 | 97.05382 | 39028 ft | 532 kts | 123° |
| 2026-05-06 19:07 | 36.35149 | 97.13602 | 39029 ft | 532 kts | 123° |
| 2026-05-06 19:08 | 36.31866 | 97.21825 | 39031 ft | 532 kts | 123° |
| 2026-05-06 19:08 | 36.28602 | 97.29983 | 39033 ft | 531 kts | 123° |
| 2026-05-06 19:09 | 36.25317 | 97.38171 | 39036 ft | 531 kts | 123° |
| 2026-05-06 19:09 | 36.22022 | 97.46363 | 39040 ft | 531 kts | 123° |
| 2026-05-06 19:10 | 36.18722 | 97.54546 | 39049 ft | 531 kts | 123° |
| 2026-05-06 19:10 | 36.15423 | 97.62707 | 39049 ft | 531 kts | 123° |
| 2026-05-06 19:11 | 36.12178 | 97.70926 | 39056 ft | 532 kts | 122° |
| 2026-05-06 19:11 | 36.09015 | 97.79191 | 39077 ft | 532 kts | 122° |
| 2026-05-06 19:12 | 36.05837 | 97.87461 | 39086 ft | 532 kts | 122° |
| 2026-05-06 19:12 | 36.02637 | 97.95713 | 39094 ft | 532 kts | 122° |
| 2026-05-06 19:13 | 35.99428 | 98.03948 | 39103 ft | 532 kts | 122° |
| 2026-05-06 19:13 | 35.96232 | 98.12130 | 39106 ft | 532 kts | 122° |
| 2026-05-06 19:14 | 35.92990 | 98.20408 | 39126 ft | 533 kts | 122° |
| 2026-05-06 19:14 | 35.89756 | 98.28650 | 39121 ft | 534 kts | 122° |
| 2026-05-06 19:15 | 35.86535 | 98.36836 | 39132 ft | 534 kts | 122° |
| 2026-05-06 19:15 | 35.83261 | 98.45130 | 39149 ft | 535 kts | 122° |
| 2026-05-06 19:16 | 35.80011 | 98.53334 | 39162 ft | 536 kts | 122° |
| 2026-05-06 19:16 | 35.76734 | 98.61605 | 39168 ft | 538 kts | 122° |
| 2026-05-06 19:17 | 35.73452 | 98.69865 | 39165 ft | 538 kts | 122° |
| 2026-05-06 19:17 | 35.70153 | 98.78139 | 39170 ft | 539 kts | 122° |
| 2026-05-06 19:18 | 35.66836 | 98.86433 | 39184 ft | 541 kts | 122° |
| 2026-05-06 19:18 | 35.63514 | 98.94727 | 39183 ft | 541 kts | 122° |
| 2026-05-06 19:19 | 35.60180 | 99.03032 | 39180 ft | 542 kts | 122° |
| 2026-05-06 19:19 | 35.56835 | 99.11343 | 39188 ft | 543 kts | 122° |
| 2026-05-06 19:20 | 35.53483 | 99.19647 | 39193 ft | 544 kts | 122° |
| 2026-05-06 19:20 | 35.50114 | 99.27968 | 39196 ft | 544 kts | 122° |
| 2026-05-06 19:21 | 35.46735 | 99.36294 | 39200 ft | 545 kts | 122° |
| 2026-05-06 19:21 | 35.43350 | 99.44617 | 39202 ft | 546 kts | 122° |
| 2026-05-06 19:22 | 35.39948 | 99.52961 | 39205 ft | 547 kts | 122° |
| 2026-05-06 19:22 | 35.36531 | 99.61321 | 39207 ft | 549 kts | 121° |
| 2026-05-06 19:23 | 35.33106 | 99.69682 | 39205 ft | 550 kts | 121° |
| 2026-05-06 19:23 | 35.29686 | 99.78002 | 39201 ft | 550 kts | 121° |
| 2026-05-06 19:24 | 35.26235 | 99.86376 | 39191 ft | 551 kts | 121° |
| 2026-05-06 19:24 | 35.22780 | 99.94746 | 39188 ft | 553 kts | 121° |
| 2026-05-06 19:25 | 35.19306 | 100.03134 | 39182 ft | 552 kts | 121° |
| 2026-05-06 19:25 | 35.15833 | 100.11504 | 39178 ft | 552 kts | 121° |
| 2026-05-06 19:26 | 35.12362 | 100.19846 | 39168 ft | 551 kts | 121° |
| 2026-05-06 19:26 | 35.08885 | 100.28182 | 39171 ft | 550 kts | 122° |
| 2026-05-06 19:27 | 35.05406 | 100.36501 | 39173 ft | 549 kts | 122° |
| 2026-05-06 19:27 | 35.01934 | 100.44786 | 39189 ft | 548 kts | 122° |
| 2026-05-06 19:28 | 34.98462 | 100.53053 | 39183 ft | 546 kts | 122° |
| 2026-05-06 19:28 | 34.94992 | 100.61286 | 39183 ft | 545 kts | 122° |
| 2026-05-06 19:29 | 34.91534 | 100.69477 | 39195 ft | 544 kts | 122° |
| 2026-05-06 19:29 | 34.88065 | 100.77671 | 39200 ft | 544 kts | 122° |
| 2026-05-06 19:30 | 34.84588 | 100.85860 | 39210 ft | 544 kts | 122° |
| 2026-05-06 19:30 | 34.81114 | 100.94027 | 39222 ft | 544 kts | 122° |
| 2026-05-06 19:31 | 34.77654 | 101.02141 | 39226 ft | 543 kts | 122° |
| 2026-05-06 19:31 | 34.72424 | 101.14369 | 39238 ft | 543 kts | 122° |
| 2026-05-06 19:32 | 34.68929 | 101.22519 | 39237 ft | 543 kts | 122° |
| 2026-05-06 19:32 | 34.65435 | 101.30645 | 39244 ft | 543 kts | 122° |
| 2026-05-06 19:33 | 34.61930 | 101.38777 | 39246 ft | 543 kts | 122° |
| 2026-05-06 19:33 | 34.58416 | 101.46904 | 39249 ft | 544 kts | 122° |
| 2026-05-06 19:34 | 34.54904 | 101.55013 | 39252 ft | 543 kts | 122° |
| 2026-05-06 19:34 | 34.51379 | 101.63132 | 39260 ft | 544 kts | 122° |
| 2026-05-06 19:35 | 34.47852 | 101.71236 | 39265 ft | 544 kts | 121° |
| 2026-05-06 19:35 | 34.44315 | 101.79346 | 39271 ft | 544 kts | 122° |
| 2026-05-06 19:36 | 34.40769 | 101.87456 | 39275 ft | 545 kts | 122° |
| 2026-05-06 19:36 | 34.37214 | 101.95567 | 39276 ft | 545 kts | 122° |
| 2026-05-06 19:37 | 34.33659 | 102.03660 | 39278 ft | 545 kts | 121° |
| 2026-05-06 19:37 | 34.30699 | 102.10385 | 39280 ft | 545 kts | 122° |
| 2026-05-06 19:38 | 34.26519 | 102.19858 | 39274 ft | 545 kts | 122° |
| 2026-05-06 19:38 | 34.22946 | 102.27936 | 39271 ft | 546 kts | 122° |
| 2026-05-06 19:39 | 34.19359 | 102.36027 | 39268 ft | 546 kts | 122° |
| 2026-05-06 19:39 | 34.15816 | 102.44160 | 39262 ft | 547 kts | 121° |
| 2026-05-06 19:40 | 34.12355 | 102.52332 | 39256 ft | 547 kts | 120° |
| 2026-05-06 19:40 | 34.08882 | 102.60505 | 39253 ft | 547 kts | 121° |
| 2026-05-06 19:41 | 34.05395 | 102.68643 | 39250 ft | 547 kts | 121° |
| 2026-05-06 19:41 | 34.01893 | 102.76780 | 39244 ft | 546 kts | 121° |
| 2026-05-06 19:42 | 33.98410 | 102.84852 | 39243 ft | 546 kts | 121° |
| 2026-05-06 19:42 | 33.94903 | 102.92963 | 39240 ft | 545 kts | 121° |
| 2026-05-06 19:43 | 33.91402 | 103.01042 | 39238 ft | 544 kts | 121° |
| 2026-05-06 19:43 | 33.87893 | 103.09121 | 39236 ft | 544 kts | 121° |
| 2026-05-06 19:44 | 33.84381 | 103.17188 | 39238 ft | 544 kts | 121° |
| 2026-05-06 19:44 | 33.80874 | 103.25226 | 39236 ft | 543 kts | 121° |
| 2026-05-06 19:45 | 33.77350 | 103.33278 | 39244 ft | 544 kts | 121° |
| 2026-05-06 19:45 | 33.73818 | 103.41333 | 39237 ft | 544 kts | 121° |
| 2026-05-06 19:46 | 33.70291 | 103.49362 | 39237 ft | 544 kts | 121° |
| 2026-05-06 19:46 | 33.66756 | 103.57392 | 39233 ft | 544 kts | 121° |
| 2026-05-06 19:47 | 33.63211 | 103.65420 | 39234 ft | 544 kts | 121° |
| 2026-05-06 19:47 | 33.59674 | 103.73418 | 39235 ft | 543 kts | 121° |
| 2026-05-06 19:48 | 33.56123 | 103.81421 | 39239 ft | 543 kts | 121° |
| 2026-05-06 19:48 | 33.52572 | 103.89417 | 39239 ft | 543 kts | 121° |
| 2026-05-06 19:49 | 33.49025 | 103.97379 | 39221 ft | 542 kts | 121° |
| 2026-05-06 19:49 | 33.45333 | 104.05239 | 39220 ft | 539 kts | 128° |
| 2026-05-06 19:50 | 33.43010 | 104.08712 | 39208 ft | 532 kts | 139° |
| 2026-05-06 19:50 | 33.40266 | 104.11630 | 39206 ft | 522 kts | 149° |
| 2026-05-06 19:50 | 33.37198 | 104.13866 | 39201 ft | 512 kts | 161° |
| 2026-05-06 19:50 | 33.33917 | 104.15375 | 39195 ft | 501 kts | 172° |
| 2026-05-06 19:51 | 33.27136 | 104.17009 | 39206 ft | 495 kts | 178° |
| 2026-05-06 19:51 | 33.20330 | 104.18119 | 39196 ft | 494 kts | 179° |
| 2026-05-06 19:52 | 33.14659 | 104.19050 | 39189 ft | 495 kts | 179° |
| 2026-05-06 19:52 | 33.06741 | 104.20443 | 39192 ft | 495 kts | 178° |
| 2026-05-06 19:53 | 33.01036 | 104.21483 | 39187 ft | 496 kts | 178° |
| 2026-05-06 19:53 | 32.94217 | 104.22729 | 39187 ft | 495 kts | 178° |
| 2026-05-06 19:54 | 32.87403 | 104.23967 | 39189 ft | 496 kts | 178° |
| 2026-05-06 19:54 | 32.80567 | 104.25210 | 39177 ft | 497 kts | 178° |
| 2026-05-06 19:55 | 32.73725 | 104.26450 | 39170 ft | 497 kts | 178° |
| 2026-05-06 19:55 | 32.66889 | 104.27686 | 39165 ft | 498 kts | 178° |
| 2026-05-06 19:56 | 32.60084 | 104.28913 | 39154 ft | 498 kts | 178° |
| 2026-05-06 19:56 | 32.53227 | 104.30148 | 39144 ft | 499 kts | 178° |
| 2026-05-06 19:57 | 32.46365 | 104.31381 | 39138 ft | 500 kts | 179° |
| 2026-05-06 19:57 | 32.39477 | 104.32617 | 39123 ft | 501 kts | 179° |
| 2026-05-06 19:58 | 32.32589 | 104.33852 | 39112 ft | 502 kts | 179° |
| 2026-05-06 19:58 | 32.25680 | 104.35088 | 39106 ft | 502 kts | 179° |
| 2026-05-06 19:59 | 32.18760 | 104.36324 | 39102 ft | 503 kts | 179° |
| 2026-05-06 19:59 | 32.11839 | 104.37558 | 39101 ft | 504 kts | 179° |
| 2026-05-06 20:00 | 32.04900 | 104.38794 | 39090 ft | 504 kts | 180° |
| 2026-05-06 20:00 | 31.97964 | 104.40027 | 39085 ft | 505 kts | 180° |
| 2026-05-06 20:01 | 31.91019 | 104.41262 | 39076 ft | 505 kts | 180° |
| 2026-05-06 20:01 | 31.84112 | 104.42485 | 39051 ft | 504 kts | 180° |
| 2026-05-06 20:02 | 31.77130 | 104.43721 | 39058 ft | 505 kts | 180° |
| 2026-05-06 20:02 | 31.70234 | 104.44943 | 39047 ft | 504 kts | 180° |
| 2026-05-06 20:03 | 31.63300 | 104.46168 | 39028 ft | 503 kts | 180° |
| 2026-05-06 20:03 | 31.56377 | 104.47387 | 39074 ft | 504 kts | 180° |
| 2026-05-06 20:04 | 31.52907 | 104.47998 | 39304 ft | 502 kts | 179° |
| 2026-05-06 20:04 | 31.49458 | 104.48606 | 39532 ft | 501 kts | 179° |
| 2026-05-06 20:04 | 31.46016 | 104.49212 | 39726 ft | 501 kts | 179° |
| 2026-05-06 20:04 | 31.42565 | 104.49819 | 39904 ft | 500 kts | 179° |
| 2026-05-06 20:05 | 31.39127 | 104.50422 | 40069 ft | 500 kts | 179° |
| 2026-05-06 20:05 | 31.35690 | 104.51024 | 40235 ft | 500 kts | 179° |
| 2026-05-06 20:05 | 31.32242 | 104.51628 | 40389 ft | 500 kts | 179° |
| 2026-05-06 20:05 | 31.28807 | 104.52229 | 40550 ft | 500 kts | 179° |
| 2026-05-06 20:06 | 31.25373 | 104.52830 | 40708 ft | 500 kts | 179° |
| 2026-05-06 20:06 | 31.21939 | 104.53430 | 40853 ft | 499 kts | 179° |
| 2026-05-06 20:06 | 31.18493 | 104.54032 | 40976 ft | 500 kts | 179° |
| 2026-05-06 20:06 | 31.15048 | 104.54632 | 41006 ft | 502 kts | 179° |
| 2026-05-06 20:07 | 31.08123 | 104.55839 | 41008 ft | 503 kts | 179° |
| 2026-05-06 20:07 | 31.01200 | 104.57047 | 41006 ft | 503 kts | 179° |
| 2026-05-06 20:08 | 30.94276 | 104.58251 | 41007 ft | 503 kts | 179° |
| 2026-05-06 20:08 | 30.87365 | 104.59451 | 41006 ft | 502 kts | 179° |
| 2026-05-06 20:09 | 30.80451 | 104.60651 | 41004 ft | 502 kts | 179° |
| 2026-05-06 20:09 | 30.73553 | 104.61846 | 41001 ft | 502 kts | 179° |
| 2026-05-06 20:10 | 30.66690 | 104.63033 | 41013 ft | 501 kts | 179° |
| 2026-05-06 20:10 | 30.59784 | 104.64225 | 41002 ft | 501 kts | 179° |
| 2026-05-06 20:11 | 30.52893 | 104.65414 | 41008 ft | 501 kts | 179° |
| 2026-05-06 20:11 | 30.45990 | 104.66602 | 41009 ft | 501 kts | 179° |
| 2026-05-06 20:12 | 30.39087 | 104.67788 | 41008 ft | 501 kts | 179° |
| 2026-05-06 20:12 | 30.32196 | 104.68972 | 41009 ft | 501 kts | 179° |
| 2026-05-06 20:13 | 30.25293 | 104.70155 | 41008 ft | 501 kts | 179° |
| 2026-05-06 20:13 | 30.18391 | 104.71337 | 41007 ft | 501 kts | 179° |
| 2026-05-06 20:14 | 30.11500 | 104.72515 | 41003 ft | 501 kts | 179° |
| 2026-05-06 20:14 | 30.04597 | 104.73693 | 41004 ft | 501 kts | 179° |
| 2026-05-06 20:15 | 29.97695 | 104.74870 | 41001 ft | 501 kts | 179° |
| 2026-05-06 20:15 | 29.90803 | 104.76043 | 41007 ft | 501 kts | 179° |
| 2026-05-06 20:16 | 29.83899 | 104.77217 | 41003 ft | 501 kts | 179° |
| 2026-05-06 20:16 | 29.76994 | 104.78389 | 41003 ft | 501 kts | 179° |
| 2026-05-06 20:17 | 29.70099 | 104.79558 | 40999 ft | 501 kts | 179° |
| 2026-05-06 20:17 | 29.63238 | 104.80719 | 40996 ft | 501 kts | 179° |
| 2026-05-06 20:18 | 29.56331 | 104.81887 | 40993 ft | 501 kts | 179° |
| 2026-05-06 20:18 | 29.49436 | 104.83051 | 41001 ft | 501 kts | 179° |
| 2026-05-06 20:19 | 29.42528 | 104.84216 | 41003 ft | 501 kts | 179° |
| 2026-05-06 20:19 | 29.35637 | 104.85422 | 40989 ft | 504 kts | 176° |
| 2026-05-06 20:20 | 29.28886 | 104.87988 | 41002 ft | 516 kts | 164° |
| 2026-05-06 20:20 | 29.22280 | 104.91278 | 41003 ft | 518 kts | 162° |
| 2026-05-06 20:21 | 29.15692 | 104.94658 | 41005 ft | 519 kts | 162° |
| 2026-05-06 20:21 | 29.09111 | 104.98016 | 41003 ft | 518 kts | 163° |
| 2026-05-06 20:22 | 29.02517 | 105.01354 | 41005 ft | 518 kts | 163° |
| 2026-05-06 20:22 | 28.95919 | 105.04676 | 41007 ft | 518 kts | 163° |
| 2026-05-06 20:23 | 28.89334 | 105.07989 | 41008 ft | 517 kts | 163° |
| 2026-05-06 20:23 | 28.82734 | 105.11281 | 41007 ft | 517 kts | 163° |
| 2026-05-06 20:24 | 28.76146 | 105.14576 | 41008 ft | 519 kts | 162° |
| 2026-05-06 20:24 | 28.69699 | 105.18369 | 41016 ft | 523 kts | 157° |
| 2026-05-06 20:25 | 28.63331 | 105.22396 | 41018 ft | 523 kts | 158° |
| 2026-05-06 20:25 | 28.56948 | 105.26350 | 41022 ft | 523 kts | 158° |
| 2026-05-06 20:26 | 28.50528 | 105.30243 | 41026 ft | 522 kts | 159° |
| 2026-05-06 20:26 | 28.44141 | 105.34087 | 41024 ft | 523 kts | 159° |
| 2026-05-06 20:27 | 28.37679 | 105.37972 | 41032 ft | 522 kts | 158° |
| 2026-05-06 20:27 | 28.31297 | 105.41807 | 41035 ft | 522 kts | 158° |
| 2026-05-06 20:28 | 28.24876 | 105.45662 | 41045 ft | 522 kts | 158° |
| 2026-05-06 20:28 | 28.18468 | 105.49505 | 41042 ft | 521 kts | 158° |
| 2026-05-06 20:29 | 28.12049 | 105.53346 | 41053 ft | 522 kts | 158° |
| 2026-05-06 20:29 | 28.05532 | 105.56851 | 41062 ft | 512 kts | 168° |
| 2026-05-06 20:30 | 27.95246 | 105.59083 | 41057 ft | 500 kts | 179° |
| 2026-05-06 20:31 | 27.88367 | 105.60129 | 41056 ft | 499 kts | 179° |
| 2026-05-06 20:31 | 27.81479 | 105.61357 | 41060 ft | 506 kts | 172° |
| 2026-05-06 20:32 | 27.74846 | 105.64345 | 41067 ft | 519 kts | 159° |
| 2026-05-06 20:32 | 27.68468 | 105.68188 | 41066 ft | 521 kts | 157° |
| 2026-05-06 20:33 | 27.62066 | 105.71992 | 41065 ft | 518 kts | 160° |
| 2026-05-06 20:33 | 27.55570 | 105.75462 | 41066 ft | 516 kts | 161° |
| 2026-05-06 20:34 | 27.49061 | 105.78900 | 41068 ft | 516 kts | 161° |
| 2026-05-06 20:34 | 27.42566 | 105.82374 | 41067 ft | 516 kts | 160° |
| 2026-05-06 20:35 | 27.36126 | 105.85843 | 41059 ft | 516 kts | 160° |
| 2026-05-06 20:35 | 27.29615 | 105.89349 | 41061 ft | 516 kts | 160° |
| 2026-05-06 20:36 | 27.23181 | 105.92806 | 41057 ft | 515 kts | 160° |
| 2026-05-06 20:36 | 27.16708 | 105.96279 | 41057 ft | 515 kts | 160° |
| 2026-05-06 20:37 | 27.10247 | 105.99740 | 41048 ft | 515 kts | 160° |
| 2026-05-06 20:37 | 27.04113 | 106.04007 | 41044 ft | 526 kts | 143° |
| 2026-05-06 20:38 | 26.99202 | 106.10182 | 41037 ft | 534 kts | 131° |
| 2026-05-06 20:38 | 26.94734 | 106.16837 | 41037 ft | 535 kts | 130° |
| 2026-05-06 20:39 | 26.90298 | 106.23539 | 41037 ft | 535 kts | 130° |
| 2026-05-06 20:39 | 26.85832 | 106.30205 | 41033 ft | 535 kts | 130° |
| 2026-05-06 20:40 | 26.81353 | 106.36832 | 41037 ft | 534 kts | 130° |
| 2026-05-06 20:40 | 26.76864 | 106.43455 | 41035 ft | 534 kts | 130° |
| 2026-05-06 20:41 | 26.73135 | 106.48949 | 41033 ft | 533 kts | 130° |
| 2026-05-06 20:41 | 26.68648 | 106.55554 | 41031 ft | 533 kts | 130° |
| 2026-05-06 20:42 | 26.64168 | 106.62140 | 41024 ft | 532 kts | 130° |
| 2026-05-06 20:42 | 26.59682 | 106.68726 | 41021 ft | 532 kts | 130° |
| 2026-05-06 20:43 | 26.55194 | 106.75305 | 41017 ft | 532 kts | 130° |
| 2026-05-06 20:43 | 26.50429 | 106.81558 | 41020 ft | 527 kts | 138° |
| 2026-05-06 20:44 | 26.45252 | 106.87349 | 41019 ft | 526 kts | 139° |
| 2026-05-06 20:44 | 26.40022 | 106.93063 | 41016 ft | 526 kts | 139° |
| 2026-05-06 20:45 | 26.34806 | 106.98759 | 41008 ft | 525 kts | 139° |
| 2026-05-06 20:45 | 26.29593 | 107.04463 | 41002 ft | 524 kts | 139° |
| 2026-05-06 20:46 | 26.24437 | 107.10137 | 40987 ft | 524 kts | 139° |
| 2026-05-06 20:46 | 26.19258 | 107.15823 | 40983 ft | 523 kts | 139° |
| 2026-05-06 20:47 | 26.14077 | 107.21501 | 40965 ft | 522 kts | 139° |
| 2026-05-06 20:47 | 26.08903 | 107.27167 | 40968 ft | 521 kts | 139° |
| 2026-05-06 20:48 | 26.03741 | 107.32813 | 40956 ft | 521 kts | 139° |
| 2026-05-06 20:48 | 25.98573 | 107.38458 | 40950 ft | 520 kts | 139° |
| 2026-05-06 20:49 | 25.93407 | 107.44095 | 40946 ft | 520 kts | 139° |
| 2026-05-06 20:49 | 25.88251 | 107.49712 | 40942 ft | 520 kts | 139° |
| 2026-05-06 20:50 | 25.83087 | 107.55331 | 40934 ft | 519 kts | 139° |
| 2026-05-06 20:50 | 25.77933 | 107.60931 | 40932 ft | 519 kts | 138° |
| 2026-05-06 20:51 | 25.72772 | 107.66533 | 40929 ft | 519 kts | 138° |
| 2026-05-06 20:51 | 25.67625 | 107.72143 | 40921 ft | 518 kts | 138° |
| 2026-05-06 20:52 | 25.62496 | 107.77764 | 40912 ft | 518 kts | 138° |
| 2026-05-06 20:52 | 25.57373 | 107.83372 | 40913 ft | 518 kts | 138° |
| 2026-05-06 20:53 | 25.52270 | 107.88946 | 40907 ft | 519 kts | 138° |
| 2026-05-06 20:53 | 25.46716 | 107.94029 | 40899 ft | 513 kts | 153° |
| 2026-05-06 20:54 | 25.40232 | 107.96889 | 40899 ft | 501 kts | 173° |
| 2026-05-06 20:54 | 25.33344 | 107.97949 | 40894 ft | 500 kts | 178° |
| 2026-05-06 20:55 | 25.26407 | 107.98733 | 40882 ft | 502 kts | 178° |
| 2026-05-06 20:55 | 25.19462 | 107.99523 | 40881 ft | 503 kts | 178° |
| 2026-05-06 20:56 | 25.12503 | 108.00355 | 40873 ft | 503 kts | 178° |
| 2026-05-06 20:56 | 25.05544 | 108.01205 | 40870 ft | 503 kts | 178° |
| 2026-05-06 20:57 | 24.98596 | 108.02053 | 40867 ft | 503 kts | 178° |
| 2026-05-06 20:57 | 24.91637 | 108.02900 | 40865 ft | 503 kts | 178° |
| 2026-05-06 20:58 | 24.84675 | 108.03744 | 40864 ft | 503 kts | 178° |
| 2026-05-06 20:58 | 24.77724 | 108.04586 | 40858 ft | 503 kts | 178° |
| 2026-05-06 20:59 | 24.70758 | 108.05429 | 40859 ft | 504 kts | 178° |
| 2026-05-06 20:59 | 24.63788 | 108.06272 | 40857 ft | 504 kts | 178° |
| 2026-05-06 21:00 | 24.56826 | 108.07113 | 40860 ft | 504 kts | 178° |
| 2026-05-06 21:00 | 24.49853 | 108.07963 | 40862 ft | 504 kts | 178° |
| 2026-05-06 21:01 | 24.42884 | 108.08812 | 40866 ft | 503 kts | 178° |
| 2026-05-06 21:01 | 24.35931 | 108.09654 | 40862 ft | 503 kts | 178° |
| 2026-05-06 21:02 | 24.29017 | 108.10492 | 40868 ft | 503 kts | 178° |
| 2026-05-06 21:02 | 24.22060 | 108.11336 | 40877 ft | 503 kts | 178° |
| 2026-05-06 21:03 | 24.15119 | 108.12177 | 40874 ft | 502 kts | 178° |
| 2026-05-06 21:03 | 24.08169 | 108.13017 | 40875 ft | 502 kts | 178° |
| 2026-05-06 21:04 | 24.01232 | 108.13856 | 40876 ft | 502 kts | 178° |
| 2026-05-06 21:04 | 23.94286 | 108.14709 | 40876 ft | 503 kts | 176° |
| 2026-05-06 21:05 | 23.87518 | 108.16833 | 40878 ft | 512 kts | 157° |
| 2026-05-06 21:05 | 23.81690 | 108.21342 | 40885 ft | 521 kts | 135° |
| 2026-05-06 21:05 | 23.79395 | 108.24418 | 40883 ft | 523 kts | 124° |
| 2026-05-06 21:06 | 23.77646 | 108.27898 | 40885 ft | 525 kts | 113° |
| 2026-05-06 21:06 | 23.76496 | 108.31670 | 40883 ft | 525 kts | 102° |
| 2026-05-06 21:06 | 23.75981 | 108.35615 | 40887 ft | 524 kts | 91° |
| 2026-05-06 21:06 | 23.76115 | 108.39572 | 40888 ft | 521 kts | 79° |
| 2026-05-06 21:07 | 23.76881 | 108.43415 | 40885 ft | 517 kts | 69° |
| 2026-05-06 21:07 | 23.79162 | 108.50855 | 40888 ft | 521 kts | 76° |
| 2026-05-06 21:08 | 23.79661 | 108.58769 | 40885 ft | 525 kts | 90° |
| 2026-05-06 21:08 | 23.79294 | 108.66745 | 40883 ft | 527 kts | 92° |
| 2026-05-06 21:09 | 23.78781 | 108.74737 | 40886 ft | 528 kts | 92° |
| 2026-05-06 21:09 | 23.78278 | 108.82683 | 40886 ft | 528 kts | 92° |
| 2026-05-06 21:10 | 23.77791 | 108.90677 | 40884 ft | 528 kts | 92° |
| 2026-05-06 21:10 | 23.77309 | 108.98686 | 40883 ft | 528 kts | 92° |
| 2026-05-06 21:11 | 23.76824 | 109.06697 | 40881 ft | 528 kts | 92° |
| 2026-05-06 21:11 | 23.76216 | 109.14685 | 40884 ft | 530 kts | 98° |
| 2026-05-06 21:12 | 23.74780 | 109.22581 | 40886 ft | 530 kts | 101° |
| 2026-05-06 21:12 | 23.73194 | 109.30437 | 40883 ft | 531 kts | 102° |
| 2026-05-06 21:13 | 23.71584 | 109.38302 | 40884 ft | 531 kts | 102° |
| 2026-05-06 21:13 | 23.69982 | 109.46173 | 40885 ft | 531 kts | 101° |
| 2026-05-06 21:14 | 23.68385 | 109.54033 | 40888 ft | 531 kts | 101° |
| 2026-05-06 21:14 | 23.66784 | 109.61908 | 40892 ft | 531 kts | 101° |
| 2026-05-06 21:15 | 23.65175 | 109.69782 | 40895 ft | 532 kts | 102° |
| 2026-05-06 21:15 | 23.63547 | 109.77637 | 40898 ft | 532 kts | 102° |
| 2026-05-06 21:16 | 23.61914 | 109.85503 | 40901 ft | 531 kts | 102° |
| 2026-05-06 21:16 | 23.60282 | 109.93366 | 40903 ft | 531 kts | 102° |
| 2026-05-06 21:17 | 23.58657 | 110.01175 | 40908 ft | 531 kts | 102° |
| 2026-05-06 21:17 | 23.57020 | 110.09018 | 40905 ft | 531 kts | 102° |
| 2026-05-06 21:18 | 23.55378 | 110.16869 | 40907 ft | 531 kts | 102° |
| 2026-05-06 21:18 | 23.53735 | 110.24703 | 40906 ft | 531 kts | 102° |
| 2026-05-06 21:19 | 23.52086 | 110.32546 | 40904 ft | 531 kts | 102° |
| 2026-05-06 21:19 | 23.50447 | 110.40386 | 40900 ft | 530 kts | 101° |
| 2026-05-06 21:20 | 23.48859 | 110.48219 | 40902 ft | 530 kts | 101° |
| 2026-05-06 21:20 | 23.47273 | 110.56064 | 40906 ft | 530 kts | 101° |
| 2026-05-06 21:21 | 23.45676 | 110.63903 | 40905 ft | 530 kts | 101° |
| 2026-05-06 21:21 | 23.44075 | 110.71733 | 40909 ft | 530 kts | 101° |
| 2026-05-06 21:22 | 23.42465 | 110.79550 | 40912 ft | 530 kts | 101° |
| 2026-05-06 21:22 | 23.41071 | 110.87421 | 40912 ft | 529 kts | 98° |
| 2026-05-06 21:23 | 23.39871 | 110.95325 | 40914 ft | 529 kts | 98° |
| 2026-05-06 21:23 | 23.38652 | 111.03209 | 40913 ft | 529 kts | 98° |
| 2026-05-06 21:24 | 23.37386 | 111.11098 | 40914 ft | 529 kts | 98° |
| 2026-05-06 21:24 | 23.36104 | 111.18974 | 40916 ft | 528 kts | 99° |
| 2026-05-06 21:25 | 23.34816 | 111.26850 | 40922 ft | 528 kts | 99° |
| 2026-05-06 21:25 | 23.33529 | 111.34708 | 40918 ft | 528 kts | 99° |
| 2026-05-06 21:26 | 23.32245 | 111.42521 | 40923 ft | 528 kts | 99° |
| 2026-05-06 21:26 | 23.30950 | 111.50368 | 40922 ft | 527 kts | 99° |
| 2026-05-06 21:27 | 23.29651 | 111.58225 | 40925 ft | 527 kts | 99° |
| 2026-05-06 21:27 | 23.28349 | 111.66079 | 40925 ft | 527 kts | 99° |
| 2026-05-06 21:28 | 23.27045 | 111.73916 | 40927 ft | 527 kts | 99° |
| 2026-05-06 21:28 | 23.25736 | 111.81766 | 40928 ft | 527 kts | 99° |
| 2026-05-06 21:29 | 23.24423 | 111.89613 | 40933 ft | 527 kts | 99° |
| 2026-05-06 21:29 | 23.23112 | 111.97444 | 40935 ft | 527 kts | 99° |
| 2026-05-06 21:30 | 23.21799 | 112.05287 | 40935 ft | 527 kts | 99° |
| 2026-05-06 21:30 | 23.20477 | 112.13130 | 40940 ft | 527 kts | 99° |
| 2026-05-06 21:31 | 23.19375 | 112.19640 | 40939 ft | 527 kts | 99° |
| 2026-05-06 21:31 | 23.18043 | 112.27478 | 40940 ft | 527 kts | 99° |
| 2026-05-06 21:32 | 23.16708 | 112.35303 | 40943 ft | 527 kts | 99° |
| 2026-05-06 21:32 | 23.14696 | 112.47061 | 40942 ft | 527 kts | 99° |
| 2026-05-06 21:33 | 23.13352 | 112.54886 | 40941 ft | 527 kts | 99° |
| 2026-05-06 21:33 | 23.12003 | 112.62714 | 40938 ft | 527 kts | 99° |
| 2026-05-06 21:34 | 23.10649 | 112.70544 | 40944 ft | 527 kts | 99° |
| 2026-05-06 21:34 | 23.09287 | 112.78360 | 40936 ft | 527 kts | 100° |
| 2026-05-06 21:35 | 23.07919 | 112.86190 | 40940 ft | 527 kts | 100° |
| 2026-05-06 21:35 | 23.06551 | 112.94019 | 40938 ft | 527 kts | 100° |
| 2026-05-06 21:36 | 23.05193 | 113.01782 | 40938 ft | 527 kts | 100° |
| 2026-05-06 21:36 | 23.03422 | 113.09510 | 40937 ft | 528 kts | 112° |
| 2026-05-06 21:37 | 22.99693 | 113.16288 | 40939 ft | 524 kts | 134° |
| 2026-05-06 21:37 | 22.97072 | 113.18996 | 40940 ft | 519 kts | 145° |
| 2026-05-06 21:37 | 22.94072 | 113.21082 | 40914 ft | 502 kts | 158° |
| 2026-05-06 21:38 | 22.90871 | 113.22487 | 40455 ft | 495 kts | 165° |
| 2026-05-06 21:38 | 22.87579 | 113.23660 | 39564 ft | 502 kts | 166° |
| 2026-05-06 21:38 | 22.84219 | 113.24831 | 38734 ft | 510 kts | 166° |
| 2026-05-06 21:38 | 22.80833 | 113.26025 | 37848 ft | 515 kts | 165° |
| 2026-05-06 21:39 | 22.77420 | 113.27237 | 37032 ft | 519 kts | 165° |
| 2026-05-06 21:39 | 22.73973 | 113.28465 | 36207 ft | 522 kts | 165° |
| 2026-05-06 21:39 | 22.70514 | 113.29700 | 35408 ft | 526 kts | 165° |
| 2026-05-06 21:39 | 22.67035 | 113.30943 | 34649 ft | 529 kts | 165° |
| 2026-05-06 21:40 | 22.63532 | 113.32195 | 33862 ft | 531 kts | 165° |
| 2026-05-06 21:40 | 22.60007 | 113.33455 | 33040 ft | 533 kts | 165° |
| 2026-05-06 21:40 | 22.56499 | 113.34708 | 32393 ft | 530 kts | 165° |
| 2026-05-06 21:40 | 22.53011 | 113.35955 | 31801 ft | 527 kts | 165° |
| 2026-05-06 21:41 | 22.49581 | 113.37179 | 31226 ft | 523 kts | 165° |
| 2026-05-06 21:41 | 22.46139 | 113.38407 | 30662 ft | 520 kts | 165° |
| 2026-05-06 21:41 | 22.42723 | 113.39625 | 30144 ft | 515 kts | 165° |
| 2026-05-06 21:41 | 22.39324 | 113.40836 | 29558 ft | 511 kts | 165° |
| 2026-05-06 21:42 | 22.35962 | 113.42033 | 28954 ft | 507 kts | 165° |
| 2026-05-06 21:42 | 22.32645 | 113.43214 | 28368 ft | 503 kts | 164° |
| 2026-05-06 21:42 | 22.29325 | 113.44395 | 27810 ft | 499 kts | 164° |
| 2026-05-06 21:42 | 22.26048 | 113.45560 | 27251 ft | 495 kts | 164° |
| 2026-05-06 21:43 | 22.22781 | 113.46721 | 26705 ft | 492 kts | 164° |
| 2026-05-06 21:43 | 22.19525 | 113.47876 | 26152 ft | 494 kts | 164° |
| 2026-05-06 21:43 | 22.16271 | 113.49031 | 25611 ft | 492 kts | 164° |
| 2026-05-06 21:43 | 22.13024 | 113.50184 | 25067 ft | 488 kts | 164° |
| 2026-05-06 21:44 | 22.09811 | 113.51324 | 24519 ft | 485 kts | 164° |
| 2026-05-06 21:44 | 22.06625 | 113.52454 | 23975 ft | 481 kts | 164° |
| 2026-05-06 21:44 | 22.03464 | 113.53575 | 23629 ft | 472 kts | 164° |
| 2026-05-06 21:44 | 22.00360 | 113.54533 | 23359 ft | 457 kts | 173° |
| 2026-05-06 21:45 | 21.97255 | 113.54672 | 23031 ft | 440 kts | 189° |
| 2026-05-06 21:45 | 21.94363 | 113.53870 | 22729 ft | 420 kts | 206° |
| 2026-05-06 21:45 | 21.91811 | 113.52498 | 21943 ft | 402 kts | 211° |
| 2026-05-06 21:45 | 21.89400 | 113.51107 | 21405 ft | 384 kts | 210° |
| 2026-05-06 21:46 | 21.87027 | 113.49804 | 21001 ft | 386 kts | 209° |
| 2026-05-06 21:46 | 21.84600 | 113.48521 | 20592 ft | 388 kts | 208° |
| 2026-05-06 21:46 | 21.82176 | 113.47278 | 20154 ft | 385 kts | 207° |
| 2026-05-06 21:46 | 21.79765 | 113.46060 | 19728 ft | 382 kts | 207° |
| 2026-05-06 21:47 | 21.77368 | 113.44860 | 19325 ft | 378 kts | 207° |
| 2026-05-06 21:47 | 21.74985 | 113.43706 | 19259 ft | 375 kts | 204° |
| 2026-05-06 21:47 | 21.72470 | 113.42930 | 19158 ft | 378 kts | 192° |
| 2026-05-06 21:47 | 21.69842 | 113.42852 | 18618 ft | 384 kts | 174° |
| 2026-05-06 21:48 | 21.67303 | 113.43781 | 18077 ft | 389 kts | 152° |
| 2026-05-06 21:48 | 21.65232 | 113.45644 | 17560 ft | 392 kts | 130° |
| 2026-05-06 21:48 | 21.63895 | 113.48177 | 17081 ft | 392 kts | 110° |
| 2026-05-06 21:48 | 21.63371 | 113.51020 | 16674 ft | 388 kts | 91° |
| 2026-05-06 21:49 | 21.63791 | 113.53861 | 16128 ft | 387 kts | 69° |
| 2026-05-06 21:49 | 21.64971 | 113.56439 | 15662 ft | 384 kts | 60° |
| 2026-05-06 21:49 | 21.66241 | 113.58959 | 15202 ft | 381 kts | 62° |
| 2026-05-06 21:49 | 21.67431 | 113.61494 | 14762 ft | 379 kts | 64° |
| 2026-05-06 21:50 | 21.68567 | 113.64040 | 14295 ft | 377 kts | 64° |
| 2026-05-06 21:50 | 21.69671 | 113.66591 | 13863 ft | 374 kts | 65° |
| 2026-05-06 21:50 | 21.70749 | 113.69122 | 13391 ft | 371 kts | 65° |
| 2026-05-06 21:50 | 21.71811 | 113.71639 | 12897 ft | 369 kts | 66° |
| 2026-05-06 21:51 | 21.72849 | 113.74116 | 12439 ft | 366 kts | 66° |
| 2026-05-06 21:51 | 21.73889 | 113.76602 | 11953 ft | 363 kts | 66° |
| 2026-05-06 21:51 | 21.74918 | 113.79066 | 11506 ft | 360 kts | 66° |
| 2026-05-06 21:51 | 21.76152 | 113.81384 | 11088 ft | 356 kts | 50° |
| 2026-05-06 21:52 | 21.77860 | 113.83242 | 10864 ft | 344 kts | 41° |
| 2026-05-06 21:52 | 21.79617 | 113.84940 | 10657 ft | 334 kts | 41° |
| 2026-05-06 21:52 | 21.81317 | 113.86587 | 10453 ft | 325 kts | 41° |
| 2026-05-06 21:52 | 21.83000 | 113.88187 | 10144 ft | 320 kts | 38° |
| 2026-05-06 21:53 | 21.84923 | 113.89282 | 9646 ft | 309 kts | 13° |
| 2026-05-06 21:53 | 21.87010 | 113.89315 | 8935 ft | 297 kts | 342° |
| 2026-05-06 21:53 | 21.88909 | 113.88489 | 8634 ft | 293 kts | 333° |
| 2026-05-06 21:53 | 21.90747 | 113.87549 | 8346 ft | 292 kts | 333° |
| 2026-05-06 21:54 | 21.92584 | 113.86619 | 8068 ft | 291 kts | 333° |
| 2026-05-06 21:54 | 21.94418 | 113.85699 | 7773 ft | 291 kts | 333° |
| 2026-05-06 21:54 | 21.96252 | 113.84782 | 7489 ft | 290 kts | 333° |
| 2026-05-06 21:54 | 21.98078 | 113.83871 | 7195 ft | 289 kts | 333° |
| 2026-05-06 21:55 | 21.99895 | 113.82965 | 6925 ft | 287 kts | 334° |
| 2026-05-06 21:55 | 22.01702 | 113.82067 | 6694 ft | 286 kts | 333° |
| 2026-05-06 21:55 | 22.03510 | 113.81169 | 6506 ft | 285 kts | 334° |
| 2026-05-06 21:55 | 22.05310 | 113.80275 | 6056 ft | 286 kts | 333° |
| 2026-05-06 21:56 | 22.07122 | 113.79369 | 5576 ft | 288 kts | 334° |
| 2026-05-06 21:56 | 22.08940 | 113.78459 | 5168 ft | 288 kts | 334° |
| 2026-05-06 21:56 | 22.10756 | 113.77551 | 4785 ft | 286 kts | 334° |
| 2026-05-06 21:56 | 22.12545 | 113.76667 | 4523 ft | 280 kts | 334° |
| 2026-05-06 21:57 | 22.14248 | 113.75818 | 4339 ft | 258 kts | 334° |
| 2026-05-06 21:57 | 22.15804 | 113.75040 | 4190 ft | 236 kts | 334° |
| 2026-05-06 21:57 | 22.17245 | 113.74319 | 4048 ft | 224 kts | 334° |
| 2026-05-06 21:57 | 22.18660 | 113.73611 | 3884 ft | 224 kts | 334° |
| 2026-05-06 21:58 | 22.20042 | 113.72928 | 3784 ft | 212 kts | 335° |
| 2026-05-06 21:58 | 22.21456 | 113.72605 | 3497 ft | 208 kts | 7° |
| 2026-05-06 21:58 | 22.22749 | 113.73171 | 3283 ft | 200 kts | 34° |
| 2026-05-06 21:58 | 22.23903 | 113.73998 | 2979 ft | 197 kts | 36° |
| 2026-05-06 21:59 | 22.25023 | 113.74812 | 2798 ft | 191 kts | 36° |
| 2026-05-06 21:59 | 22.26096 | 113.75616 | 2601 ft | 185 kts | 41° |
| 2026-05-06 21:59 | 22.26903 | 113.76651 | 2405 ft | 178 kts | 67° |
| 2026-05-06 21:59 | 22.27294 | 113.77899 | 2294 ft | 176 kts | 77° |
| 2026-05-06 22:00 | 22.27644 | 113.79157 | 2073 ft | 174 kts | 73° |
| 2026-05-06 22:00 | 22.28064 | 113.80365 | 1848 ft | 167 kts | 72° |
| 2026-05-06 22:00 | 22.28431 | 113.81511 | 1637 ft | 157 kts | 73° |
| 2026-05-06 22:00 | 22.28772 | 113.82586 | 1435 ft | 146 kts | 73° |
| 2026-05-06 22:01 | 22.29091 | 113.83573 | 1246 ft | 138 kts | 72° |
| 2026-05-06 22:01 | 22.29404 | 113.84551 | 1021 ft | 136 kts | 72° |
| 2026-05-06 22:01 | 22.29722 | 113.85525 | 854 ft | 136 kts | 71° |
| 2026-05-06 22:01 | 22.30039 | 113.86493 | 689 ft | 136 kts | 71° |
| 2026-05-06 22:02 | 22.30356 | 113.87465 | 549 ft | 139 kts | 72° |
| 2026-05-06 22:02 | 22.30671 | 113.88449 | 335 ft | 137 kts | 72° |
| 2026-05-06 22:02 | 22.30980 | 113.89421 | 178 ft | 137 kts | 71° |
| 2026-05-06 22:02 | 22.31288 | 113.90380 | 51 ft | 135 kts | 72° |
| 2026-05-06 22:03 | 22.31499 | 113.91055 | 45 ft | 78 kts | 71° |
| 2026-05-06 22:03 | 22.31646 | 113.91505 | 44 ft | 49 kts | 71° |
| 2026-05-06 22:03 | 22.31749 | 113.91822 | 43 ft | 43 kts | 70° |
| 2026-05-06 22:04 | 22.31843 | 113.92115 | 43 ft | 40 kts | 71° |
| 2026-05-06 22:04 | 22.31904 | 113.92308 | 43 ft | 23 kts | 71° |
| 2026-05-06 22:04 | 22.31934 | 113.92472 | 43 ft | 12 kts | 88° |
| 2026-05-06 22:04 | 22.31935 | 113.92487 | 43 ft | 4 kts | 88° |
| 2026-05-06 22:05 | 22.31935 | 113.92544 | 43 ft | 11 kts | 93° |
| 2026-05-06 22:05 | 22.31918 | 113.92647 | 43 ft | 16 kts | 113° |
| 2026-05-06 22:05 | 22.31858 | 113.92667 | 43 ft | 7 kts | 209° |
| 2026-05-06 22:05 | 22.31826 | 113.92621 | 43 ft | 9 kts | 244° |
| 2026-05-06 22:06 | 22.31798 | 113.92549 | 43 ft | 12 kts | 250° |
| 2026-05-06 22:06 | 22.31767 | 113.92455 | 43 ft | 14 kts | 246° |
| 2026-05-06 22:06 | 22.31706 | 113.92427 | 43 ft | 9 kts | 166° |
| 2026-05-06 22:06 | 22.31644 | 113.92455 | 43 ft | 11 kts | 144° |
| 2026-05-06 22:07 | 22.31600 | 113.92523 | 43 ft | 12 kts | 118° |
| 2026-05-06 22:07 | 22.31561 | 113.92586 | 43 ft | 7 kts | 153° |
| 2026-05-06 22:07 | 22.31522 | 113.92578 | 43 ft | 7 kts | 202° |
| 2026-05-06 22:07 | 22.31494 | 113.92564 | 43 ft | 2 kts | 205° |
| 2026-05-06 22:08 | 22.31480 | 113.92557 | 43 ft | 0 kts | 205° |